THY168 WSSS-YMML
Flight info
| Callsign | THY168 |
|---|---|
| Flight time | 6h 53m |
| Altitude | 39000 |
| Route | ANITO8B ANITO B470 PKP L895 TATAN/N0484F410 L895 SAPDA A585 AD V255 BENDO Y12 ARBEY |
| Aircraft | A359/H-SDE2E3GHIJ3J4J5LM1ORWXY/LB1D1 |
Departure
| Time | 2026-05-07 18:27 |
|---|---|
| Airport | Singapore Changi Airport (WSSS) |
Arrival
| Time | 2026-05-08 01:21 |
|---|---|
| Airport | Melbourne Airport (YMML) |
| Time | Latitude | Longitude | Altitude | Speed | Heading |
|---|---|---|---|---|---|
| 2026-05-07 18:08 | 1.35556 | 103.99282 | 29 ft | 0 kts | 323° |
| 2026-05-07 18:20 | 1.35556 | 103.99283 | 29 ft | 1 kts | 323° |
| 2026-05-07 18:20 | 1.35536 | 103.99297 | 30 ft | 4 kts | 323° |
| 2026-05-07 18:20 | 1.35515 | 103.99313 | 30 ft | 4 kts | 323° |
| 2026-05-07 18:20 | 1.35496 | 103.99325 | 30 ft | 4 kts | 345° |
| 2026-05-07 18:21 | 1.35473 | 103.99322 | 30 ft | 4 kts | 43° |
| 2026-05-07 18:21 | 1.35457 | 103.99304 | 30 ft | 2 kts | 49° |
| 2026-05-07 18:21 | 1.35453 | 103.99300 | 30 ft | 0 kts | 49° |
| 2026-05-07 18:23 | 1.35455 | 103.99302 | 30 ft | 3 kts | 48° |
| 2026-05-07 18:23 | 1.35487 | 103.99338 | 30 ft | 8 kts | 48° |
| 2026-05-07 18:24 | 1.35531 | 103.99387 | 30 ft | 11 kts | 48° |
| 2026-05-07 18:24 | 1.35590 | 103.99437 | 30 ft | 12 kts | 31° |
| 2026-05-07 18:24 | 1.35671 | 103.99476 | 30 ft | 14 kts | 22° |
| 2026-05-07 18:24 | 1.35765 | 103.99514 | 30 ft | 15 kts | 22° |
| 2026-05-07 18:25 | 1.35868 | 103.99558 | 30 ft | 17 kts | 23° |
| 2026-05-07 18:25 | 1.35980 | 103.99606 | 30 ft | 18 kts | 23° |
| 2026-05-07 18:25 | 1.36103 | 103.99658 | 30 ft | 20 kts | 23° |
| 2026-05-07 18:25 | 1.36224 | 103.99724 | 30 ft | 18 kts | 59° |
| 2026-05-07 18:26 | 1.36213 | 103.99834 | 30 ft | 16 kts | 110° |
| 2026-05-07 18:26 | 1.36165 | 103.99870 | 30 ft | 6 kts | 186° |
| 2026-05-07 18:26 | 1.36103 | 103.99852 | 30 ft | 25 kts | 198° |
| 2026-05-07 18:26 | 1.35718 | 103.99690 | 30 ft | 93 kts | 204° |
| 2026-05-07 18:27 | 1.34932 | 103.99360 | 30 ft | 150 kts | 202° |
| 2026-05-07 18:27 | 1.33842 | 103.98912 | 310 ft | 178 kts | 202° |
| 2026-05-07 18:27 | 1.32658 | 103.98438 | 882 ft | 191 kts | 202° |
| 2026-05-07 18:27 | 1.31385 | 103.97914 | 1413 ft | 208 kts | 203° |
| 2026-05-07 18:28 | 1.29968 | 103.97303 | 1679 ft | 236 kts | 204° |
| 2026-05-07 18:28 | 1.28389 | 103.96612 | 2000 ft | 258 kts | 203° |
| 2026-05-07 18:28 | 1.26717 | 103.95894 | 2640 ft | 265 kts | 203° |
| 2026-05-07 18:28 | 1.25020 | 103.95172 | 3366 ft | 270 kts | 202° |
| 2026-05-07 18:29 | 1.23229 | 103.94618 | 4076 ft | 271 kts | 186° |
| 2026-05-07 18:29 | 1.21365 | 103.94749 | 4859 ft | 269 kts | 167° |
| 2026-05-07 18:29 | 1.19536 | 103.95181 | 5550 ft | 270 kts | 165° |
| 2026-05-07 18:29 | 1.17698 | 103.95652 | 5918 ft | 274 kts | 165° |
| 2026-05-07 18:30 | 1.15844 | 103.96125 | 6003 ft | 276 kts | 166° |
| 2026-05-07 18:30 | 1.13974 | 103.96597 | 5998 ft | 277 kts | 166° |
| 2026-05-07 18:30 | 1.12101 | 103.97071 | 5998 ft | 279 kts | 166° |
| 2026-05-07 18:30 | 1.10317 | 103.97800 | 6001 ft | 278 kts | 147° |
| 2026-05-07 18:31 | 1.08751 | 103.98917 | 5996 ft | 277 kts | 142° |
| 2026-05-07 18:31 | 1.07224 | 104.00101 | 5995 ft | 277 kts | 142° |
| 2026-05-07 18:31 | 1.05706 | 104.01290 | 5997 ft | 278 kts | 142° |
| 2026-05-07 18:31 | 1.04188 | 104.02477 | 5998 ft | 277 kts | 142° |
| 2026-05-07 18:32 | 1.02821 | 104.03842 | 5994 ft | 279 kts | 124° |
| 2026-05-07 18:32 | 1.01919 | 104.05551 | 5997 ft | 279 kts | 114° |
| 2026-05-07 18:32 | 1.01169 | 104.07340 | 5996 ft | 279 kts | 112° |
| 2026-05-07 18:32 | 1.00423 | 104.09127 | 5995 ft | 278 kts | 114° |
| 2026-05-07 18:33 | 0.99701 | 104.10904 | 5997 ft | 277 kts | 112° |
| 2026-05-07 18:33 | 0.98958 | 104.12683 | 5995 ft | 277 kts | 114° |
| 2026-05-07 18:33 | 0.98200 | 104.14459 | 6166 ft | 281 kts | 113° |
| 2026-05-07 18:33 | 0.97438 | 104.16245 | 6805 ft | 283 kts | 113° |
| 2026-05-07 18:34 | 0.96669 | 104.18054 | 7595 ft | 284 kts | 113° |
| 2026-05-07 18:34 | 0.95902 | 104.19888 | 8308 ft | 288 kts | 113° |
| 2026-05-07 18:34 | 0.95121 | 104.21740 | 9024 ft | 292 kts | 113° |
| 2026-05-07 18:34 | 0.94179 | 104.23547 | 9686 ft | 295 kts | 120° |
| 2026-05-07 18:35 | 0.93099 | 104.25313 | 10296 ft | 302 kts | 122° |
| 2026-05-07 18:35 | 0.91952 | 104.27141 | 10602 ft | 320 kts | 122° |
| 2026-05-07 18:35 | 0.90740 | 104.29076 | 10871 ft | 337 kts | 122° |
| 2026-05-07 18:35 | 0.89471 | 104.31117 | 11127 ft | 353 kts | 122° |
| 2026-05-07 18:36 | 0.88140 | 104.33239 | 11345 ft | 367 kts | 122° |
| 2026-05-07 18:36 | 0.86775 | 104.35432 | 11788 ft | 374 kts | 122° |
| 2026-05-07 18:36 | 0.85394 | 104.37652 | 12345 ft | 378 kts | 122° |
| 2026-05-07 18:36 | 0.84011 | 104.39866 | 12880 ft | 381 kts | 122° |
| 2026-05-07 18:37 | 0.82603 | 104.42124 | 13415 ft | 384 kts | 121° |
| 2026-05-07 18:37 | 0.81170 | 104.44377 | 13956 ft | 386 kts | 124° |
| 2026-05-07 18:37 | 0.79602 | 104.46574 | 14469 ft | 389 kts | 126° |
| 2026-05-07 18:37 | 0.78006 | 104.48767 | 14983 ft | 392 kts | 125° |
| 2026-05-07 18:38 | 0.76408 | 104.50979 | 15504 ft | 394 kts | 125° |
| 2026-05-07 18:38 | 0.74807 | 104.53210 | 15973 ft | 396 kts | 125° |
| 2026-05-07 18:38 | 0.73091 | 104.55380 | 16411 ft | 401 kts | 133° |
| 2026-05-07 18:38 | 0.70864 | 104.57062 | 16905 ft | 405 kts | 152° |
| 2026-05-07 18:39 | 0.68225 | 104.58076 | 17371 ft | 409 kts | 161° |
| 2026-05-07 18:39 | 0.65480 | 104.58884 | 17808 ft | 412 kts | 162° |
| 2026-05-07 18:39 | 0.62716 | 104.59686 | 18229 ft | 415 kts | 162° |
| 2026-05-07 18:39 | 0.59928 | 104.60500 | 18645 ft | 418 kts | 162° |
| 2026-05-07 18:40 | 0.57126 | 104.61321 | 19060 ft | 421 kts | 161° |
| 2026-05-07 18:40 | 0.54312 | 104.62151 | 19521 ft | 423 kts | 162° |
| 2026-05-07 18:40 | 0.51477 | 104.62991 | 19898 ft | 425 kts | 161° |
| 2026-05-07 18:40 | 0.48629 | 104.63836 | 20251 ft | 429 kts | 161° |
| 2026-05-07 18:41 | 0.45765 | 104.64690 | 20637 ft | 431 kts | 161° |
| 2026-05-07 18:41 | 0.42877 | 104.65549 | 21029 ft | 434 kts | 161° |
| 2026-05-07 18:41 | 0.39975 | 104.66407 | 21412 ft | 436 kts | 161° |
| 2026-05-07 18:41 | 0.37053 | 104.67271 | 21810 ft | 439 kts | 161° |
| 2026-05-07 18:42 | 0.34122 | 104.68136 | 22173 ft | 441 kts | 161° |
| 2026-05-07 18:42 | 0.31205 | 104.68997 | 22524 ft | 443 kts | 161° |
| 2026-05-07 18:42 | 0.28242 | 104.69869 | 22839 ft | 446 kts | 161° |
| 2026-05-07 18:42 | 0.25260 | 104.70757 | 23161 ft | 449 kts | 161° |
| 2026-05-07 18:43 | 0.22250 | 104.71650 | 23530 ft | 451 kts | 161° |
| 2026-05-07 18:43 | 0.19237 | 104.72542 | 23894 ft | 453 kts | 161° |
| 2026-05-07 18:43 | 0.16208 | 104.73443 | 24239 ft | 456 kts | 161° |
| 2026-05-07 18:43 | 0.13160 | 104.74351 | 24600 ft | 458 kts | 161° |
| 2026-05-07 18:44 | 0.10095 | 104.75261 | 24941 ft | 461 kts | 161° |
| 2026-05-07 18:44 | 0.07011 | 104.76173 | 25305 ft | 463 kts | 161° |
| 2026-05-07 18:44 | 0.03916 | 104.77089 | 25672 ft | 466 kts | 161° |
| 2026-05-07 18:44 | 0.00793 | 104.78012 | 26050 ft | 469 kts | 161° |
| 2026-05-07 18:45 | -0.02345 | 104.78943 | 26437 ft | 472 kts | 161° |
| 2026-05-07 18:45 | -0.05505 | 104.79882 | 26812 ft | 475 kts | 161° |
| 2026-05-07 18:45 | -0.08642 | 104.80815 | 27204 ft | 478 kts | 161° |
| 2026-05-07 18:45 | -0.11835 | 104.81764 | 27597 ft | 480 kts | 161° |
| 2026-05-07 18:46 | -0.15055 | 104.82723 | 27956 ft | 484 kts | 162° |
| 2026-05-07 18:46 | -0.18288 | 104.83681 | 28349 ft | 486 kts | 162° |
| 2026-05-07 18:46 | -0.21542 | 104.84647 | 28747 ft | 489 kts | 162° |
| 2026-05-07 18:46 | -0.24805 | 104.85622 | 29117 ft | 491 kts | 161° |
| 2026-05-07 18:47 | -0.28012 | 104.86808 | 29425 ft | 492 kts | 154° |
| 2026-05-07 18:47 | -0.31012 | 104.88456 | 29771 ft | 493 kts | 147° |
| 2026-05-07 18:47 | -0.33907 | 104.90309 | 30074 ft | 495 kts | 145° |
| 2026-05-07 18:47 | -0.36774 | 104.92241 | 30388 ft | 497 kts | 144° |
| 2026-05-07 18:48 | -0.39632 | 104.94207 | 30677 ft | 499 kts | 144° |
| 2026-05-07 18:48 | -0.42497 | 104.96180 | 30941 ft | 502 kts | 144° |
| 2026-05-07 18:48 | -0.45381 | 104.98164 | 31207 ft | 504 kts | 143° |
| 2026-05-07 18:48 | -0.48279 | 105.00159 | 31472 ft | 506 kts | 144° |
| 2026-05-07 18:49 | -0.51190 | 105.02142 | 31735 ft | 508 kts | 144° |
| 2026-05-07 18:49 | -0.54127 | 105.04130 | 31981 ft | 510 kts | 144° |
| 2026-05-07 18:49 | -0.57067 | 105.06117 | 32311 ft | 510 kts | 144° |
| 2026-05-07 18:49 | -0.59966 | 105.08073 | 32736 ft | 508 kts | 144° |
| 2026-05-07 18:50 | -0.62890 | 105.10044 | 33127 ft | 506 kts | 144° |
| 2026-05-07 18:50 | -0.65808 | 105.12015 | 33451 ft | 506 kts | 144° |
| 2026-05-07 18:50 | -0.68724 | 105.13986 | 33747 ft | 506 kts | 144° |
| 2026-05-07 18:50 | -0.71631 | 105.15955 | 34056 ft | 505 kts | 144° |
| 2026-05-07 18:51 | -0.74536 | 105.17927 | 34338 ft | 504 kts | 144° |
| 2026-05-07 18:51 | -0.77437 | 105.19894 | 34608 ft | 504 kts | 144° |
| 2026-05-07 18:51 | -0.80344 | 105.21860 | 34907 ft | 504 kts | 144° |
| 2026-05-07 18:51 | -0.83244 | 105.23821 | 35211 ft | 503 kts | 144° |
| 2026-05-07 18:52 | -0.86140 | 105.25781 | 35490 ft | 502 kts | 144° |
| 2026-05-07 18:52 | -0.89030 | 105.27737 | 35753 ft | 502 kts | 144° |
| 2026-05-07 18:52 | -0.91922 | 105.29692 | 36014 ft | 501 kts | 144° |
| 2026-05-07 18:52 | -0.94806 | 105.31641 | 36276 ft | 501 kts | 144° |
| 2026-05-07 18:53 | -0.97658 | 105.33565 | 36530 ft | 500 kts | 144° |
| 2026-05-07 18:53 | -1.00540 | 105.35515 | 36780 ft | 500 kts | 144° |
| 2026-05-07 18:53 | -1.03409 | 105.37462 | 37042 ft | 498 kts | 144° |
| 2026-05-07 18:53 | -1.06274 | 105.39404 | 37340 ft | 495 kts | 144° |
| 2026-05-07 18:54 | -1.09158 | 105.41358 | 37597 ft | 494 kts | 144° |
| 2026-05-07 18:54 | -1.11960 | 105.43255 | 37900 ft | 491 kts | 145° |
| 2026-05-07 18:54 | -1.14792 | 105.45170 | 38160 ft | 490 kts | 144° |
| 2026-05-07 18:54 | -1.17617 | 105.47080 | 38357 ft | 489 kts | 144° |
| 2026-05-07 18:55 | -1.20441 | 105.48989 | 38528 ft | 490 kts | 145° |
| 2026-05-07 18:55 | -1.23261 | 105.50898 | 38710 ft | 489 kts | 145° |
| 2026-05-07 18:55 | -1.26084 | 105.52809 | 38833 ft | 490 kts | 145° |
| 2026-05-07 18:56 | -1.31727 | 105.56629 | 38850 ft | 489 kts | 145° |
| 2026-05-07 18:56 | -1.37373 | 105.60449 | 38850 ft | 490 kts | 145° |
| 2026-05-07 18:57 | -1.42059 | 105.63626 | 38851 ft | 490 kts | 145° |
| 2026-05-07 18:57 | -1.47700 | 105.67450 | 38850 ft | 490 kts | 145° |
| 2026-05-07 18:58 | -1.53341 | 105.71270 | 38850 ft | 490 kts | 145° |
| 2026-05-07 18:58 | -1.58988 | 105.75092 | 38850 ft | 490 kts | 145° |
| 2026-05-07 18:59 | -1.64632 | 105.78913 | 38850 ft | 490 kts | 145° |
| 2026-05-07 18:59 | -1.70241 | 105.82708 | 38851 ft | 490 kts | 145° |
| 2026-05-07 19:00 | -1.75891 | 105.86539 | 38850 ft | 490 kts | 145° |
| 2026-05-07 19:00 | -1.81533 | 105.90363 | 38849 ft | 490 kts | 145° |
| 2026-05-07 19:01 | -1.87174 | 105.94183 | 38850 ft | 489 kts | 145° |
| 2026-05-07 19:01 | -1.92818 | 105.98003 | 38850 ft | 490 kts | 145° |
| 2026-05-07 19:02 | -1.98465 | 106.01828 | 38851 ft | 490 kts | 145° |
| 2026-05-07 19:02 | -2.04103 | 106.05657 | 38853 ft | 489 kts | 144° |
| 2026-05-07 19:03 | -2.09708 | 106.09461 | 38850 ft | 490 kts | 145° |
| 2026-05-07 19:03 | -2.15303 | 106.13412 | 38854 ft | 489 kts | 139° |
| 2026-05-07 19:04 | -2.19962 | 106.18337 | 38850 ft | 488 kts | 129° |
| 2026-05-07 19:04 | -2.24167 | 106.23599 | 38851 ft | 487 kts | 127° |
| 2026-05-07 19:05 | -2.28323 | 106.28963 | 38850 ft | 488 kts | 127° |
| 2026-05-07 19:05 | -2.32493 | 106.34345 | 38849 ft | 489 kts | 127° |
| 2026-05-07 19:06 | -2.36660 | 106.39703 | 38851 ft | 488 kts | 127° |
| 2026-05-07 19:06 | -2.42904 | 106.47677 | 38852 ft | 487 kts | 127° |
| 2026-05-07 19:07 | -2.47085 | 106.53021 | 38850 ft | 488 kts | 127° |
| 2026-05-07 19:07 | -2.51263 | 106.58382 | 38850 ft | 489 kts | 127° |
| 2026-05-07 19:08 | -2.55449 | 106.63748 | 38850 ft | 488 kts | 127° |
| 2026-05-07 19:08 | -2.59641 | 106.69110 | 38852 ft | 489 kts | 127° |
| 2026-05-07 19:09 | -2.63802 | 106.74439 | 38862 ft | 489 kts | 127° |
| 2026-05-07 19:09 | -2.67998 | 106.79794 | 38855 ft | 488 kts | 127° |
| 2026-05-07 19:10 | -2.72182 | 106.85153 | 38860 ft | 489 kts | 127° |
| 2026-05-07 19:10 | -2.76361 | 106.90520 | 38856 ft | 489 kts | 127° |
| 2026-05-07 19:11 | -2.80545 | 106.95886 | 38852 ft | 489 kts | 127° |
| 2026-05-07 19:11 | -2.84740 | 107.01254 | 38850 ft | 489 kts | 127° |
| 2026-05-07 19:12 | -2.88933 | 107.06621 | 38851 ft | 489 kts | 127° |
| 2026-05-07 19:12 | -2.93092 | 107.11948 | 38843 ft | 489 kts | 127° |
| 2026-05-07 19:13 | -2.97280 | 107.17327 | 38841 ft | 490 kts | 127° |
| 2026-05-07 19:13 | -3.01476 | 107.22698 | 38841 ft | 490 kts | 127° |
| 2026-05-07 19:14 | -3.05667 | 107.28066 | 38841 ft | 490 kts | 127° |
| 2026-05-07 19:14 | -3.09853 | 107.33436 | 38841 ft | 489 kts | 127° |
| 2026-05-07 19:15 | -3.14042 | 107.38804 | 38842 ft | 489 kts | 127° |
| 2026-05-07 19:15 | -3.18203 | 107.44141 | 38841 ft | 489 kts | 127° |
| 2026-05-07 19:16 | -3.22387 | 107.49513 | 38841 ft | 489 kts | 127° |
| 2026-05-07 19:16 | -3.26571 | 107.54879 | 38841 ft | 489 kts | 127° |
| 2026-05-07 19:17 | -3.30971 | 107.60063 | 38841 ft | 490 kts | 136° |
| 2026-05-07 19:17 | -3.36560 | 107.63946 | 38845 ft | 491 kts | 153° |
| 2026-05-07 19:18 | -3.42788 | 107.66802 | 38841 ft | 492 kts | 156° |
| 2026-05-07 19:18 | -3.49104 | 107.69476 | 38841 ft | 492 kts | 157° |
| 2026-05-07 19:19 | -3.55363 | 107.72125 | 38842 ft | 491 kts | 156° |
| 2026-05-07 19:19 | -3.61647 | 107.74822 | 38841 ft | 491 kts | 156° |
| 2026-05-07 19:20 | -3.67928 | 107.77533 | 38841 ft | 492 kts | 156° |
| 2026-05-07 19:20 | -3.74207 | 107.80247 | 38841 ft | 491 kts | 156° |
| 2026-05-07 19:21 | -3.80483 | 107.82960 | 38842 ft | 491 kts | 156° |
| 2026-05-07 19:21 | -3.86771 | 107.85671 | 38842 ft | 491 kts | 156° |
| 2026-05-07 19:22 | -3.93056 | 107.88385 | 38840 ft | 491 kts | 156° |
| 2026-05-07 19:22 | -3.99336 | 107.91100 | 38842 ft | 491 kts | 156° |
| 2026-05-07 19:23 | -4.05609 | 107.93813 | 38841 ft | 491 kts | 156° |
| 2026-05-07 19:23 | -4.11843 | 107.96504 | 38869 ft | 491 kts | 156° |
| 2026-05-07 19:24 | -4.18137 | 107.99224 | 38866 ft | 491 kts | 156° |
| 2026-05-07 19:24 | -4.24419 | 108.01941 | 38868 ft | 491 kts | 156° |
| 2026-05-07 19:25 | -4.30694 | 108.04656 | 38866 ft | 491 kts | 156° |
| 2026-05-07 19:25 | -4.36926 | 108.07361 | 38870 ft | 490 kts | 156° |
| 2026-05-07 19:26 | -4.43197 | 108.10065 | 38870 ft | 490 kts | 156° |
| 2026-05-07 19:26 | -4.49462 | 108.12771 | 38869 ft | 491 kts | 156° |
| 2026-05-07 19:27 | -4.55737 | 108.15481 | 38867 ft | 490 kts | 156° |
| 2026-05-07 19:27 | -4.62000 | 108.18193 | 38866 ft | 490 kts | 156° |
| 2026-05-07 19:28 | -4.68221 | 108.20893 | 38866 ft | 491 kts | 156° |
| 2026-05-07 19:28 | -4.74493 | 108.23607 | 38870 ft | 490 kts | 156° |
| 2026-05-07 19:29 | -4.80757 | 108.26311 | 38867 ft | 490 kts | 156° |
| 2026-05-07 19:29 | -4.87022 | 108.29028 | 38871 ft | 489 kts | 156° |
| 2026-05-07 19:30 | -4.93278 | 108.31735 | 38869 ft | 489 kts | 156° |
| 2026-05-07 19:30 | -4.99522 | 108.34439 | 38867 ft | 489 kts | 156° |
| 2026-05-07 19:31 | -5.05769 | 108.37147 | 38871 ft | 489 kts | 156° |
| 2026-05-07 19:31 | -5.11987 | 108.39841 | 38868 ft | 489 kts | 156° |
| 2026-05-07 19:32 | -5.18225 | 108.42545 | 38872 ft | 488 kts | 156° |
| 2026-05-07 19:32 | -5.24466 | 108.45252 | 38866 ft | 487 kts | 156° |
| 2026-05-07 19:33 | -5.30697 | 108.47947 | 38872 ft | 488 kts | 156° |
| 2026-05-07 19:33 | -5.36904 | 108.50637 | 38867 ft | 488 kts | 156° |
| 2026-05-07 19:34 | -5.43133 | 108.53353 | 38870 ft | 488 kts | 156° |
| 2026-05-07 19:34 | -5.49363 | 108.56057 | 38869 ft | 487 kts | 156° |
| 2026-05-07 19:35 | -5.55585 | 108.58757 | 38867 ft | 487 kts | 156° |
| 2026-05-07 19:35 | -5.61814 | 108.61459 | 38870 ft | 488 kts | 156° |
| 2026-05-07 19:36 | -5.68041 | 108.64160 | 38866 ft | 487 kts | 156° |
| 2026-05-07 19:36 | -5.74266 | 108.66874 | 38867 ft | 487 kts | 156° |
| 2026-05-07 19:37 | -5.80490 | 108.69576 | 38868 ft | 488 kts | 156° |
| 2026-05-07 19:37 | -5.86718 | 108.72278 | 38866 ft | 487 kts | 156° |
| 2026-05-07 19:38 | -5.92948 | 108.74985 | 38872 ft | 487 kts | 156° |
| 2026-05-07 19:38 | -5.99168 | 108.77691 | 38872 ft | 487 kts | 156° |
| 2026-05-07 19:39 | -6.05381 | 108.80405 | 38866 ft | 487 kts | 156° |
| 2026-05-07 19:39 | -6.10545 | 108.82645 | 38871 ft | 487 kts | 157° |
| 2026-05-07 19:40 | -6.17795 | 108.85796 | 38859 ft | 488 kts | 157° |
| 2026-05-07 19:40 | -6.24030 | 108.88501 | 38860 ft | 487 kts | 157° |
| 2026-05-07 19:41 | -6.30263 | 108.91215 | 38872 ft | 487 kts | 156° |
| 2026-05-07 19:41 | -6.36499 | 108.93923 | 38868 ft | 489 kts | 157° |
| 2026-05-07 19:42 | -6.42693 | 108.96620 | 38867 ft | 488 kts | 157° |
| 2026-05-07 19:42 | -6.48921 | 108.99343 | 38870 ft | 486 kts | 157° |
| 2026-05-07 19:43 | -6.55125 | 109.02056 | 38869 ft | 486 kts | 157° |
| 2026-05-07 19:43 | -6.61341 | 109.04774 | 38870 ft | 487 kts | 157° |
| 2026-05-07 19:44 | -6.67533 | 109.07457 | 38870 ft | 487 kts | 157° |
| 2026-05-07 19:44 | -6.72733 | 109.09726 | 38871 ft | 487 kts | 157° |
| 2026-05-07 19:45 | -6.78949 | 109.12440 | 38863 ft | 486 kts | 157° |
| 2026-05-07 19:45 | -6.85161 | 109.15146 | 38859 ft | 486 kts | 157° |
| 2026-05-07 19:46 | -6.91343 | 109.17851 | 38860 ft | 488 kts | 157° |
| 2026-05-07 19:46 | -6.97577 | 109.20576 | 38860 ft | 488 kts | 157° |
| 2026-05-07 19:47 | -7.03807 | 109.23293 | 38869 ft | 488 kts | 157° |
| 2026-05-07 19:47 | -7.10036 | 109.26012 | 38868 ft | 488 kts | 157° |
| 2026-05-07 19:48 | -7.16229 | 109.28715 | 38869 ft | 488 kts | 157° |
| 2026-05-07 19:48 | -7.22451 | 109.31439 | 38869 ft | 487 kts | 157° |
| 2026-05-07 19:49 | -7.28677 | 109.34166 | 38867 ft | 488 kts | 157° |
| 2026-05-07 19:49 | -7.34905 | 109.36888 | 38876 ft | 490 kts | 157° |
| 2026-05-07 19:50 | -7.41149 | 109.39621 | 38878 ft | 488 kts | 157° |
| 2026-05-07 19:50 | -7.47386 | 109.42344 | 38880 ft | 488 kts | 157° |
| 2026-05-07 19:51 | -7.53624 | 109.45073 | 38879 ft | 488 kts | 157° |
| 2026-05-07 19:51 | -7.59850 | 109.47802 | 38877 ft | 488 kts | 157° |
| 2026-05-07 19:52 | -7.66039 | 109.50521 | 38877 ft | 488 kts | 157° |
| 2026-05-07 19:52 | -7.72269 | 109.53248 | 38880 ft | 488 kts | 157° |
| 2026-05-07 19:53 | -7.78499 | 109.55982 | 38878 ft | 488 kts | 157° |
| 2026-05-07 19:53 | -7.84737 | 109.58711 | 38877 ft | 488 kts | 157° |
| 2026-05-07 19:54 | -7.90969 | 109.61445 | 38879 ft | 489 kts | 157° |
| 2026-05-07 19:54 | -7.97203 | 109.64183 | 38889 ft | 488 kts | 156° |
| 2026-05-07 19:55 | -8.03437 | 109.66923 | 38886 ft | 489 kts | 157° |
| 2026-05-07 19:55 | -8.09682 | 109.69664 | 38888 ft | 489 kts | 157° |
| 2026-05-07 19:56 | -8.15910 | 109.72405 | 38887 ft | 488 kts | 157° |
| 2026-05-07 19:56 | -8.22154 | 109.75149 | 38888 ft | 490 kts | 157° |
| 2026-05-07 19:57 | -8.28353 | 109.77877 | 38888 ft | 489 kts | 157° |
| 2026-05-07 19:57 | -8.34597 | 109.80619 | 38888 ft | 489 kts | 157° |
| 2026-05-07 19:58 | -8.40832 | 109.83359 | 38888 ft | 489 kts | 158° |
| 2026-05-07 19:58 | -8.47080 | 109.86102 | 38889 ft | 490 kts | 157° |
| 2026-05-07 19:59 | -8.53321 | 109.88854 | 38887 ft | 489 kts | 157° |
| 2026-05-07 19:59 | -8.59557 | 109.91598 | 38887 ft | 489 kts | 157° |
| 2026-05-07 20:00 | -8.65798 | 109.94351 | 38887 ft | 489 kts | 158° |
| 2026-05-07 20:00 | -8.72048 | 109.97103 | 38887 ft | 489 kts | 158° |
| 2026-05-07 20:01 | -8.78287 | 109.99857 | 38888 ft | 489 kts | 158° |
| 2026-05-07 20:01 | -8.84523 | 110.02615 | 38888 ft | 488 kts | 158° |
| 2026-05-07 20:02 | -8.90757 | 110.05365 | 38888 ft | 489 kts | 158° |
| 2026-05-07 20:02 | -8.97004 | 110.08115 | 38879 ft | 489 kts | 158° |
| 2026-05-07 20:03 | -9.03244 | 110.10868 | 38880 ft | 489 kts | 158° |
| 2026-05-07 20:03 | -9.09490 | 110.13622 | 38878 ft | 490 kts | 158° |
| 2026-05-07 20:04 | -9.15705 | 110.16373 | 38880 ft | 490 kts | 158° |
| 2026-05-07 20:04 | -9.21954 | 110.19133 | 38881 ft | 490 kts | 159° |
| 2026-05-07 20:05 | -9.28208 | 110.21908 | 38877 ft | 490 kts | 158° |
| 2026-05-07 20:05 | -9.34455 | 110.24681 | 38878 ft | 490 kts | 159° |
| 2026-05-07 20:06 | -9.40698 | 110.27430 | 38877 ft | 490 kts | 159° |
| 2026-05-07 20:06 | -9.46947 | 110.30190 | 38878 ft | 490 kts | 159° |
| 2026-05-07 20:07 | -9.53215 | 110.32959 | 38876 ft | 491 kts | 159° |
| 2026-05-07 20:07 | -9.59433 | 110.35712 | 38889 ft | 490 kts | 159° |
| 2026-05-07 20:08 | -9.65683 | 110.38487 | 38888 ft | 490 kts | 159° |
| 2026-05-07 20:08 | -9.71938 | 110.41264 | 38888 ft | 490 kts | 159° |
| 2026-05-07 20:09 | -9.78190 | 110.44039 | 38887 ft | 490 kts | 159° |
| 2026-05-07 20:10 | -9.87562 | 110.48190 | 38888 ft | 490 kts | 159° |
| 2026-05-07 20:10 | -9.93815 | 110.50968 | 38951 ft | 491 kts | 159° |
| 2026-05-07 20:10 | -9.96945 | 110.52358 | 39136 ft | 491 kts | 159° |
| 2026-05-07 20:11 | -10.00036 | 110.53722 | 39326 ft | 490 kts | 159° |
| 2026-05-07 20:11 | -10.03166 | 110.55100 | 39493 ft | 490 kts | 159° |
| 2026-05-07 20:11 | -10.06297 | 110.56480 | 39638 ft | 491 kts | 160° |
| 2026-05-07 20:11 | -10.09430 | 110.57849 | 39796 ft | 490 kts | 160° |
| 2026-05-07 20:12 | -10.12562 | 110.59228 | 39945 ft | 491 kts | 160° |
| 2026-05-07 20:12 | -10.15689 | 110.60612 | 40132 ft | 490 kts | 159° |
| 2026-05-07 20:12 | -10.18814 | 110.62000 | 40303 ft | 489 kts | 159° |
| 2026-05-07 20:12 | -10.21935 | 110.63387 | 40429 ft | 490 kts | 159° |
| 2026-05-07 20:13 | -10.25059 | 110.64773 | 40560 ft | 490 kts | 159° |
| 2026-05-07 20:13 | -10.28182 | 110.66157 | 40691 ft | 489 kts | 160° |
| 2026-05-07 20:13 | -10.31307 | 110.67541 | 40802 ft | 490 kts | 160° |
| 2026-05-07 20:14 | -10.37524 | 110.70293 | 40893 ft | 490 kts | 160° |
| 2026-05-07 20:14 | -10.43779 | 110.73063 | 40886 ft | 490 kts | 160° |
| 2026-05-07 20:15 | -10.50028 | 110.75831 | 40881 ft | 490 kts | 160° |
| 2026-05-07 20:15 | -10.56278 | 110.78601 | 40876 ft | 490 kts | 160° |
| 2026-05-07 20:16 | -10.62494 | 110.81358 | 40878 ft | 490 kts | 160° |
| 2026-05-07 20:16 | -10.68746 | 110.84131 | 40881 ft | 490 kts | 160° |
| 2026-05-07 20:17 | -10.74990 | 110.86903 | 40879 ft | 490 kts | 160° |
| 2026-05-07 20:17 | -10.81240 | 110.89678 | 40878 ft | 490 kts | 160° |
| 2026-05-07 20:18 | -10.87492 | 110.92455 | 40883 ft | 490 kts | 160° |
| 2026-05-07 20:18 | -10.93744 | 110.95234 | 40874 ft | 490 kts | 160° |
| 2026-05-07 20:19 | -10.99949 | 110.97993 | 40881 ft | 490 kts | 160° |
| 2026-05-07 20:19 | -11.06199 | 111.00773 | 40861 ft | 490 kts | 160° |
| 2026-05-07 20:20 | -11.12447 | 111.03554 | 40874 ft | 490 kts | 160° |
| 2026-05-07 20:20 | -11.18711 | 111.06343 | 40876 ft | 490 kts | 160° |
| 2026-05-07 20:21 | -11.24955 | 111.09124 | 40862 ft | 490 kts | 160° |
| 2026-05-07 20:21 | -11.31166 | 111.11893 | 40862 ft | 490 kts | 160° |
| 2026-05-07 20:22 | -11.37452 | 111.14696 | 40874 ft | 490 kts | 160° |
| 2026-05-07 20:22 | -11.43660 | 111.17465 | 40863 ft | 490 kts | 160° |
| 2026-05-07 20:23 | -11.49908 | 111.20254 | 40862 ft | 490 kts | 160° |
| 2026-05-07 20:23 | -11.56157 | 111.23044 | 40869 ft | 490 kts | 160° |
| 2026-05-07 20:24 | -11.62406 | 111.25836 | 40875 ft | 490 kts | 160° |
| 2026-05-07 20:24 | -11.68624 | 111.28615 | 40861 ft | 490 kts | 160° |
| 2026-05-07 20:25 | -11.74867 | 111.31408 | 40870 ft | 490 kts | 160° |
| 2026-05-07 20:25 | -11.81111 | 111.34201 | 40876 ft | 490 kts | 160° |
| 2026-05-07 20:26 | -11.87363 | 111.37000 | 40878 ft | 490 kts | 160° |
| 2026-05-07 20:26 | -11.93604 | 111.39796 | 40879 ft | 490 kts | 160° |
| 2026-05-07 20:27 | -11.99763 | 111.42822 | 40881 ft | 494 kts | 152° |
| 2026-05-07 20:27 | -12.05354 | 111.46964 | 40878 ft | 498 kts | 146° |
| 2026-05-07 20:28 | -12.10746 | 111.51345 | 40880 ft | 499 kts | 144° |
| 2026-05-07 20:28 | -12.16155 | 111.55806 | 40881 ft | 499 kts | 144° |
| 2026-05-07 20:29 | -12.21571 | 111.60253 | 40878 ft | 499 kts | 145° |
| 2026-05-07 20:29 | -12.26994 | 111.64688 | 40886 ft | 499 kts | 145° |
| 2026-05-07 20:30 | -12.32416 | 111.69118 | 40886 ft | 498 kts | 145° |
| 2026-05-07 20:30 | -12.37808 | 111.73526 | 40890 ft | 498 kts | 145° |
| 2026-05-07 20:31 | -12.43226 | 111.77958 | 40888 ft | 499 kts | 145° |
| 2026-05-07 20:31 | -12.47728 | 111.81644 | 40890 ft | 499 kts | 145° |
| 2026-05-07 20:32 | -12.53150 | 111.86084 | 40888 ft | 499 kts | 145° |
| 2026-05-07 20:32 | -12.58577 | 111.90532 | 40899 ft | 499 kts | 145° |
| 2026-05-07 20:33 | -12.64004 | 111.94982 | 40899 ft | 499 kts | 145° |
| 2026-05-07 20:33 | -12.69426 | 111.99430 | 40897 ft | 500 kts | 145° |
| 2026-05-07 20:34 | -12.74822 | 112.03860 | 40893 ft | 500 kts | 145° |
| 2026-05-07 20:34 | -12.80250 | 112.08318 | 40895 ft | 499 kts | 145° |
| 2026-05-07 20:35 | -12.85679 | 112.12779 | 40899 ft | 500 kts | 145° |
| 2026-05-07 20:35 | -12.91108 | 112.17244 | 40899 ft | 500 kts | 145° |
| 2026-05-07 20:36 | -12.96544 | 112.21716 | 40899 ft | 501 kts | 145° |
| 2026-05-07 20:36 | -13.01981 | 112.26192 | 40899 ft | 501 kts | 145° |
| 2026-05-07 20:37 | -13.07386 | 112.30644 | 40899 ft | 501 kts | 145° |
| 2026-05-07 20:37 | -13.12830 | 112.35131 | 40900 ft | 502 kts | 146° |
| 2026-05-07 20:38 | -13.18272 | 112.39619 | 40906 ft | 502 kts | 146° |
| 2026-05-07 20:38 | -13.23720 | 112.44114 | 40906 ft | 503 kts | 146° |
| 2026-05-07 20:39 | -13.29171 | 112.48614 | 40906 ft | 503 kts | 146° |
| 2026-05-07 20:39 | -13.34626 | 112.53121 | 40906 ft | 503 kts | 146° |
| 2026-05-07 20:40 | -13.40078 | 112.57628 | 40906 ft | 503 kts | 146° |
| 2026-05-07 20:40 | -13.45532 | 112.62139 | 40907 ft | 503 kts | 146° |
| 2026-05-07 20:41 | -13.50986 | 112.66653 | 40907 ft | 503 kts | 146° |
| 2026-05-07 20:41 | -13.56439 | 112.71168 | 40907 ft | 503 kts | 146° |
| 2026-05-07 20:42 | -13.61889 | 112.75684 | 40905 ft | 504 kts | 146° |
| 2026-05-07 20:42 | -13.67318 | 112.80186 | 40904 ft | 504 kts | 146° |
| 2026-05-07 20:43 | -13.72777 | 112.84715 | 40902 ft | 503 kts | 146° |
| 2026-05-07 20:43 | -13.78221 | 112.89234 | 40907 ft | 503 kts | 146° |
| 2026-05-07 20:44 | -13.83673 | 112.93763 | 40906 ft | 503 kts | 146° |
| 2026-05-07 20:44 | -13.89086 | 112.98262 | 40906 ft | 503 kts | 146° |
| 2026-05-07 20:45 | -13.94539 | 113.02797 | 40907 ft | 503 kts | 146° |
| 2026-05-07 20:45 | -13.99985 | 113.07329 | 40906 ft | 503 kts | 146° |
| 2026-05-07 20:46 | -14.05437 | 113.11869 | 40906 ft | 504 kts | 146° |
| 2026-05-07 20:46 | -14.10892 | 113.16414 | 40905 ft | 505 kts | 146° |
| 2026-05-07 20:47 | -14.16350 | 113.20965 | 40907 ft | 504 kts | 146° |
| 2026-05-07 20:47 | -14.21804 | 113.25517 | 40914 ft | 504 kts | 146° |
| 2026-05-07 20:48 | -14.27221 | 113.30039 | 40915 ft | 504 kts | 146° |
| 2026-05-07 20:48 | -14.32668 | 113.34589 | 40915 ft | 504 kts | 146° |
| 2026-05-07 20:49 | -14.38115 | 113.39142 | 40915 ft | 504 kts | 146° |
| 2026-05-07 20:49 | -14.43559 | 113.43696 | 40917 ft | 504 kts | 146° |
| 2026-05-07 20:50 | -14.49015 | 113.48262 | 40914 ft | 504 kts | 146° |
| 2026-05-07 20:50 | -14.54462 | 113.52825 | 40914 ft | 504 kts | 146° |
| 2026-05-07 20:51 | -14.59909 | 113.57390 | 40914 ft | 504 kts | 146° |
| 2026-05-07 20:51 | -14.65315 | 113.61924 | 40924 ft | 504 kts | 146° |
| 2026-05-07 20:52 | -14.70757 | 113.66491 | 40924 ft | 504 kts | 146° |
| 2026-05-07 20:52 | -14.76204 | 113.71065 | 40934 ft | 504 kts | 146° |
| 2026-05-07 20:53 | -14.81653 | 113.75644 | 40934 ft | 504 kts | 146° |
| 2026-05-07 20:53 | -14.87104 | 113.80227 | 40934 ft | 505 kts | 146° |
| 2026-05-07 20:54 | -14.92527 | 113.84790 | 40938 ft | 505 kts | 146° |
| 2026-05-07 20:54 | -14.97978 | 113.89380 | 40943 ft | 505 kts | 146° |
| 2026-05-07 20:55 | -15.03434 | 113.93978 | 40943 ft | 505 kts | 146° |
| 2026-05-07 20:55 | -15.08890 | 113.98578 | 40943 ft | 505 kts | 146° |
| 2026-05-07 20:56 | -15.14348 | 114.03184 | 40943 ft | 506 kts | 146° |
| 2026-05-07 20:56 | -15.19795 | 114.07783 | 40949 ft | 505 kts | 146° |
| 2026-05-07 20:57 | -15.25212 | 114.12359 | 40981 ft | 505 kts | 146° |
| 2026-05-07 20:57 | -15.30669 | 114.16973 | 40980 ft | 506 kts | 146° |
| 2026-05-07 20:58 | -15.36127 | 114.21591 | 40982 ft | 506 kts | 146° |
| 2026-05-07 20:58 | -15.41584 | 114.26211 | 40990 ft | 506 kts | 146° |
| 2026-05-07 20:59 | -15.47048 | 114.30841 | 40991 ft | 506 kts | 146° |
| 2026-05-07 20:59 | -15.52468 | 114.35436 | 40990 ft | 506 kts | 146° |
| 2026-05-07 21:00 | -15.57926 | 114.40067 | 40989 ft | 506 kts | 146° |
| 2026-05-07 21:00 | -15.63374 | 114.44692 | 40991 ft | 506 kts | 146° |
| 2026-05-07 21:01 | -15.68824 | 114.49323 | 40998 ft | 506 kts | 146° |
| 2026-05-07 21:01 | -15.74277 | 114.53960 | 40998 ft | 506 kts | 146° |
| 2026-05-07 21:02 | -15.79731 | 114.58600 | 41000 ft | 507 kts | 146° |
| 2026-05-07 21:02 | -15.85189 | 114.63247 | 41000 ft | 507 kts | 146° |
| 2026-05-07 21:03 | -15.90609 | 114.67866 | 41002 ft | 506 kts | 146° |
| 2026-05-07 21:03 | -15.96052 | 114.72507 | 41011 ft | 506 kts | 146° |
| 2026-05-07 21:04 | -16.01502 | 114.77158 | 41010 ft | 506 kts | 146° |
| 2026-05-07 21:04 | -16.06957 | 114.81815 | 41011 ft | 507 kts | 146° |
| 2026-05-07 21:05 | -16.12411 | 114.86476 | 41011 ft | 508 kts | 147° |
| 2026-05-07 21:05 | -16.17875 | 114.91150 | 41015 ft | 508 kts | 147° |
| 2026-05-07 21:06 | -16.23300 | 114.95792 | 41015 ft | 508 kts | 147° |
| 2026-05-07 21:06 | -16.28759 | 115.00468 | 41020 ft | 508 kts | 147° |
| 2026-05-07 21:07 | -16.34213 | 115.05144 | 41017 ft | 507 kts | 147° |
| 2026-05-07 21:07 | -16.39669 | 115.09823 | 41026 ft | 507 kts | 147° |
| 2026-05-07 21:08 | -16.45115 | 115.14499 | 41029 ft | 507 kts | 147° |
| 2026-05-07 21:08 | -16.50560 | 115.19183 | 41022 ft | 508 kts | 147° |
| 2026-05-07 21:09 | -16.55972 | 115.23842 | 41025 ft | 508 kts | 147° |
| 2026-05-07 21:09 | -16.61414 | 115.28530 | 41031 ft | 508 kts | 147° |
| 2026-05-07 21:10 | -16.66867 | 115.33232 | 41038 ft | 508 kts | 147° |
| 2026-05-07 21:10 | -16.72310 | 115.37929 | 41045 ft | 507 kts | 147° |
| 2026-05-07 21:11 | -16.77752 | 115.42628 | 41042 ft | 508 kts | 147° |
| 2026-05-07 21:11 | -16.85886 | 115.49657 | 41047 ft | 509 kts | 147° |
| 2026-05-07 21:12 | -16.91337 | 115.54372 | 41044 ft | 509 kts | 147° |
| 2026-05-07 21:12 | -16.96795 | 115.59099 | 41047 ft | 509 kts | 148° |
| 2026-05-07 21:13 | -17.02255 | 115.63830 | 41052 ft | 509 kts | 148° |
| 2026-05-07 21:13 | -17.07715 | 115.68565 | 41054 ft | 510 kts | 148° |
| 2026-05-07 21:14 | -17.13173 | 115.73302 | 41054 ft | 510 kts | 148° |
| 2026-05-07 21:14 | -17.18637 | 115.78047 | 41054 ft | 510 kts | 148° |
| 2026-05-07 21:15 | -17.24065 | 115.82766 | 41054 ft | 510 kts | 148° |
| 2026-05-07 21:15 | -17.29535 | 115.87523 | 41054 ft | 512 kts | 148° |
| 2026-05-07 21:16 | -17.35011 | 115.92291 | 41056 ft | 512 kts | 148° |
| 2026-05-07 21:16 | -17.40496 | 115.97071 | 41064 ft | 512 kts | 148° |
| 2026-05-07 21:17 | -17.45975 | 116.01849 | 41063 ft | 513 kts | 148° |
| 2026-05-07 21:17 | -17.51452 | 116.06628 | 41063 ft | 513 kts | 148° |
| 2026-05-07 21:18 | -17.56939 | 116.11421 | 41063 ft | 513 kts | 148° |
| 2026-05-07 21:18 | -17.61499 | 116.15408 | 41063 ft | 513 kts | 148° |
| 2026-05-07 21:19 | -17.66984 | 116.20205 | 41063 ft | 513 kts | 148° |
| 2026-05-07 21:19 | -17.72473 | 116.25010 | 41063 ft | 514 kts | 148° |
| 2026-05-07 21:20 | -17.77967 | 116.29824 | 41082 ft | 515 kts | 148° |
| 2026-05-07 21:20 | -17.83431 | 116.34616 | 41083 ft | 515 kts | 148° |
| 2026-05-07 21:21 | -17.88933 | 116.39445 | 41081 ft | 515 kts | 148° |
| 2026-05-07 21:21 | -17.94427 | 116.44271 | 41084 ft | 515 kts | 148° |
| 2026-05-07 21:22 | -17.99926 | 116.49106 | 41084 ft | 515 kts | 148° |
| 2026-05-07 21:22 | -18.05417 | 116.53936 | 41083 ft | 515 kts | 148° |
| 2026-05-07 21:23 | -18.10877 | 116.58744 | 41092 ft | 515 kts | 148° |
| 2026-05-07 21:23 | -18.16373 | 116.63588 | 41090 ft | 516 kts | 148° |
| 2026-05-07 21:24 | -18.21879 | 116.68440 | 41092 ft | 517 kts | 148° |
| 2026-05-07 21:24 | -18.27392 | 116.73301 | 41092 ft | 517 kts | 148° |
| 2026-05-07 21:25 | -18.32906 | 116.78170 | 41094 ft | 517 kts | 148° |
| 2026-05-07 21:25 | -18.38415 | 116.83039 | 41089 ft | 517 kts | 148° |
| 2026-05-07 21:26 | -18.43926 | 116.87913 | 41093 ft | 517 kts | 148° |
| 2026-05-07 21:26 | -18.49436 | 116.92791 | 41091 ft | 517 kts | 148° |
| 2026-05-07 21:27 | -18.54959 | 116.97683 | 41091 ft | 517 kts | 148° |
| 2026-05-07 21:27 | -18.60430 | 117.02536 | 41090 ft | 518 kts | 148° |
| 2026-05-07 21:28 | -18.65941 | 117.07427 | 41092 ft | 518 kts | 148° |
| 2026-05-07 21:28 | -18.71458 | 117.12328 | 41091 ft | 519 kts | 148° |
| 2026-05-07 21:29 | -18.76982 | 117.17238 | 41093 ft | 519 kts | 148° |
| 2026-05-07 21:29 | -18.82505 | 117.22153 | 41093 ft | 519 kts | 148° |
| 2026-05-07 21:30 | -18.88036 | 117.27080 | 41088 ft | 520 kts | 148° |
| 2026-05-07 21:30 | -18.93525 | 117.31974 | 41092 ft | 520 kts | 148° |
| 2026-05-07 21:31 | -18.99049 | 117.36903 | 41088 ft | 520 kts | 148° |
| 2026-05-07 21:31 | -19.04589 | 117.41850 | 41090 ft | 521 kts | 148° |
| 2026-05-07 21:32 | -19.10131 | 117.46803 | 41088 ft | 522 kts | 148° |
| 2026-05-07 21:32 | -19.15671 | 117.51761 | 41096 ft | 522 kts | 148° |
| 2026-05-07 21:33 | -19.21220 | 117.56730 | 41097 ft | 522 kts | 148° |
| 2026-05-07 21:33 | -19.26734 | 117.61672 | 41097 ft | 522 kts | 148° |
| 2026-05-07 21:34 | -19.32288 | 117.66654 | 41108 ft | 523 kts | 148° |
| 2026-05-07 21:34 | -19.37847 | 117.71646 | 41102 ft | 524 kts | 148° |
| 2026-05-07 21:35 | -19.43418 | 117.76654 | 41103 ft | 525 kts | 148° |
| 2026-05-07 21:35 | -19.48986 | 117.81664 | 41101 ft | 525 kts | 148° |
| 2026-05-07 21:36 | -19.54530 | 117.86655 | 41106 ft | 527 kts | 148° |
| 2026-05-07 21:36 | -19.60118 | 117.91692 | 41096 ft | 527 kts | 148° |
| 2026-05-07 21:37 | -19.65702 | 117.96731 | 41093 ft | 527 kts | 148° |
| 2026-05-07 21:37 | -19.71290 | 118.01778 | 41100 ft | 527 kts | 148° |
| 2026-05-07 21:38 | -19.76872 | 118.06824 | 41095 ft | 527 kts | 148° |
| 2026-05-07 21:38 | -19.82465 | 118.11884 | 41099 ft | 528 kts | 148° |
| 2026-05-07 21:39 | -19.88057 | 118.16949 | 41099 ft | 528 kts | 148° |
| 2026-05-07 21:39 | -19.93648 | 118.22017 | 41097 ft | 528 kts | 148° |
| 2026-05-07 21:40 | -19.99201 | 118.27057 | 41095 ft | 528 kts | 148° |
| 2026-05-07 21:40 | -20.04797 | 118.32139 | 41097 ft | 528 kts | 148° |
| 2026-05-07 21:41 | -20.10390 | 118.37224 | 41104 ft | 528 kts | 148° |
| 2026-05-07 21:41 | -20.15977 | 118.42309 | 41097 ft | 528 kts | 148° |
| 2026-05-07 21:42 | -20.21527 | 118.47364 | 41097 ft | 528 kts | 148° |
| 2026-05-07 21:42 | -20.27107 | 118.52453 | 41101 ft | 528 kts | 148° |
| 2026-05-07 21:43 | -20.32693 | 118.57551 | 41095 ft | 528 kts | 148° |
| 2026-05-07 21:43 | -20.38219 | 118.62762 | 41097 ft | 535 kts | 143° |
| 2026-05-07 21:44 | -20.43476 | 118.68410 | 41097 ft | 536 kts | 143° |
| 2026-05-07 21:44 | -20.48665 | 118.74131 | 41098 ft | 536 kts | 142° |
| 2026-05-07 21:45 | -20.53815 | 118.79833 | 41097 ft | 536 kts | 142° |
| 2026-05-07 21:45 | -20.58994 | 118.85558 | 41103 ft | 536 kts | 142° |
| 2026-05-07 21:46 | -20.64182 | 118.91290 | 41098 ft | 537 kts | 142° |
| 2026-05-07 21:46 | -20.69370 | 118.97026 | 41097 ft | 537 kts | 142° |
| 2026-05-07 21:47 | -20.74560 | 119.02771 | 41102 ft | 537 kts | 142° |
| 2026-05-07 21:47 | -20.79753 | 119.08526 | 41108 ft | 537 kts | 142° |
| 2026-05-07 21:48 | -20.84937 | 119.14277 | 41106 ft | 537 kts | 142° |
| 2026-05-07 21:48 | -20.90124 | 119.20038 | 41106 ft | 537 kts | 142° |
| 2026-05-07 21:49 | -20.95300 | 119.25792 | 41124 ft | 537 kts | 142° |
| 2026-05-07 21:49 | -21.00455 | 119.31528 | 41138 ft | 537 kts | 142° |
| 2026-05-07 21:50 | -21.05643 | 119.37308 | 41138 ft | 537 kts | 142° |
| 2026-05-07 21:50 | -21.10821 | 119.43083 | 41138 ft | 537 kts | 142° |
| 2026-05-07 21:51 | -21.15967 | 119.48829 | 41137 ft | 537 kts | 142° |
| 2026-05-07 21:51 | -21.21151 | 119.54623 | 41146 ft | 538 kts | 142° |
| 2026-05-07 21:52 | -21.26329 | 119.60416 | 41146 ft | 538 kts | 142° |
| 2026-05-07 21:52 | -21.31508 | 119.66217 | 41146 ft | 538 kts | 142° |
| 2026-05-07 21:53 | -21.36685 | 119.72022 | 41148 ft | 538 kts | 142° |
| 2026-05-07 21:53 | -21.41857 | 119.77828 | 41153 ft | 538 kts | 142° |
| 2026-05-07 21:54 | -21.47030 | 119.83641 | 41156 ft | 538 kts | 142° |
| 2026-05-07 21:54 | -21.52174 | 119.89429 | 41156 ft | 539 kts | 142° |
| 2026-05-07 21:55 | -21.57348 | 119.95256 | 41155 ft | 539 kts | 142° |
| 2026-05-07 21:55 | -21.62524 | 120.01091 | 41164 ft | 539 kts | 142° |
| 2026-05-07 21:56 | -21.67697 | 120.06931 | 41164 ft | 539 kts | 142° |
| 2026-05-07 21:56 | -21.72862 | 120.12767 | 41164 ft | 539 kts | 142° |
| 2026-05-07 21:57 | -21.78030 | 120.18614 | 41185 ft | 539 kts | 142° |
| 2026-05-07 21:57 | -21.83192 | 120.24460 | 41193 ft | 539 kts | 142° |
| 2026-05-07 21:58 | -21.88355 | 120.30314 | 41193 ft | 539 kts | 142° |
| 2026-05-07 21:58 | -21.93518 | 120.36175 | 41201 ft | 539 kts | 142° |
| 2026-05-07 21:59 | -21.98678 | 120.42039 | 41203 ft | 539 kts | 142° |
| 2026-05-07 21:59 | -22.03805 | 120.47870 | 41201 ft | 539 kts | 142° |
| 2026-05-07 22:00 | -22.08966 | 120.53748 | 41207 ft | 539 kts | 142° |
| 2026-05-07 22:00 | -22.14123 | 120.59628 | 41211 ft | 539 kts | 142° |
| 2026-05-07 22:01 | -22.19276 | 120.65511 | 41211 ft | 539 kts | 142° |
| 2026-05-07 22:01 | -22.24421 | 120.71392 | 41211 ft | 539 kts | 142° |
| 2026-05-07 22:02 | -22.29530 | 120.77238 | 41214 ft | 539 kts | 142° |
| 2026-05-07 22:02 | -22.34676 | 120.83132 | 41220 ft | 539 kts | 142° |
| 2026-05-07 22:03 | -22.39819 | 120.89029 | 41224 ft | 539 kts | 142° |
| 2026-05-07 22:03 | -22.44961 | 120.94933 | 41228 ft | 538 kts | 142° |
| 2026-05-07 22:04 | -22.50090 | 121.00829 | 41229 ft | 538 kts | 141° |
| 2026-05-07 22:04 | -22.55220 | 121.06731 | 41228 ft | 538 kts | 141° |
| 2026-05-07 22:05 | -22.60350 | 121.12642 | 41229 ft | 538 kts | 141° |
| 2026-05-07 22:05 | -22.64608 | 121.17554 | 41229 ft | 538 kts | 141° |
| 2026-05-07 22:06 | -22.70564 | 121.24430 | 41232 ft | 538 kts | 141° |
| 2026-05-07 22:06 | -22.74857 | 121.29393 | 41229 ft | 538 kts | 141° |
| 2026-05-07 22:07 | -22.79941 | 121.35277 | 41229 ft | 538 kts | 141° |
| 2026-05-07 22:07 | -22.85057 | 121.41204 | 41229 ft | 538 kts | 141° |
| 2026-05-07 22:08 | -22.90169 | 121.47135 | 41242 ft | 538 kts | 141° |
| 2026-05-07 22:08 | -22.95281 | 121.53074 | 41237 ft | 538 kts | 141° |
| 2026-05-07 22:09 | -23.00357 | 121.58984 | 41240 ft | 538 kts | 141° |
| 2026-05-07 22:09 | -23.05472 | 121.64944 | 41239 ft | 538 kts | 141° |
| 2026-05-07 22:10 | -23.10569 | 121.70892 | 41235 ft | 538 kts | 141° |
| 2026-05-07 22:10 | -23.15669 | 121.76849 | 41240 ft | 538 kts | 141° |
| 2026-05-07 22:11 | -23.20760 | 121.82805 | 41239 ft | 537 kts | 141° |
| 2026-05-07 22:11 | -23.25849 | 121.88766 | 41239 ft | 537 kts | 141° |
| 2026-05-07 22:12 | -23.30900 | 121.94687 | 41250 ft | 537 kts | 141° |
| 2026-05-07 22:12 | -23.35977 | 122.00646 | 41247 ft | 537 kts | 141° |
| 2026-05-07 22:13 | -23.41050 | 122.06609 | 41247 ft | 536 kts | 141° |
| 2026-05-07 22:13 | -23.46107 | 122.12562 | 41250 ft | 535 kts | 141° |
| 2026-05-07 22:14 | -23.51174 | 122.18531 | 41247 ft | 535 kts | 141° |
| 2026-05-07 22:14 | -23.56231 | 122.24495 | 41248 ft | 535 kts | 141° |
| 2026-05-07 22:15 | -23.61253 | 122.30426 | 41248 ft | 535 kts | 141° |
| 2026-05-07 22:15 | -23.66310 | 122.36405 | 41256 ft | 535 kts | 141° |
| 2026-05-07 22:16 | -23.71354 | 122.42378 | 41255 ft | 535 kts | 141° |
| 2026-05-07 22:16 | -23.76411 | 122.48372 | 41255 ft | 535 kts | 141° |
| 2026-05-07 22:17 | -23.81455 | 122.54359 | 41259 ft | 536 kts | 141° |
| 2026-05-07 22:17 | -23.86501 | 122.60356 | 41259 ft | 536 kts | 141° |
| 2026-05-07 22:18 | -23.94026 | 122.69312 | 41257 ft | 536 kts | 141° |
| 2026-05-07 22:19 | -23.99066 | 122.75319 | 41264 ft | 536 kts | 141° |
| 2026-05-07 22:19 | -24.04103 | 122.81331 | 41265 ft | 535 kts | 140° |
| 2026-05-07 22:20 | -24.09115 | 122.87324 | 41267 ft | 533 kts | 140° |
| 2026-05-07 22:20 | -24.14117 | 122.93308 | 41266 ft | 532 kts | 140° |
| 2026-05-07 22:21 | -24.19112 | 122.99291 | 41266 ft | 532 kts | 140° |
| 2026-05-07 22:21 | -24.24104 | 123.05278 | 41275 ft | 532 kts | 140° |
| 2026-05-07 22:22 | -24.29060 | 123.11230 | 41275 ft | 532 kts | 140° |
| 2026-05-07 22:22 | -24.34038 | 123.17218 | 41275 ft | 531 kts | 140° |
| 2026-05-07 22:23 | -24.39004 | 123.23198 | 41275 ft | 530 kts | 140° |
| 2026-05-07 22:23 | -24.43966 | 123.29186 | 41280 ft | 530 kts | 140° |
| 2026-05-07 22:24 | -24.48932 | 123.35178 | 41298 ft | 530 kts | 140° |
| 2026-05-07 22:24 | -24.53860 | 123.41132 | 41280 ft | 530 kts | 140° |
| 2026-05-07 22:25 | -24.58818 | 123.47131 | 41300 ft | 530 kts | 140° |
| 2026-05-07 22:25 | -24.63772 | 123.53136 | 41300 ft | 530 kts | 140° |
| 2026-05-07 22:26 | -24.68721 | 123.59141 | 41300 ft | 530 kts | 140° |
| 2026-05-07 22:26 | -24.73673 | 123.65158 | 41298 ft | 530 kts | 139° |
| 2026-05-07 22:27 | -24.78583 | 123.71131 | 41305 ft | 529 kts | 139° |
| 2026-05-07 22:27 | -24.83521 | 123.77147 | 41301 ft | 529 kts | 139° |
| 2026-05-07 22:28 | -24.88457 | 123.83167 | 41296 ft | 529 kts | 139° |
| 2026-05-07 22:28 | -24.93385 | 123.89186 | 41338 ft | 528 kts | 139° |
| 2026-05-07 22:29 | -24.98304 | 123.95201 | 41349 ft | 528 kts | 139° |
| 2026-05-07 22:29 | -25.03213 | 124.01212 | 41350 ft | 526 kts | 139° |
| 2026-05-07 22:30 | -25.08107 | 124.07212 | 41357 ft | 526 kts | 139° |
| 2026-05-07 22:30 | -25.12961 | 124.13172 | 41360 ft | 525 kts | 138° |
| 2026-05-07 22:31 | -25.17840 | 124.19168 | 41361 ft | 524 kts | 138° |
| 2026-05-07 22:31 | -25.22714 | 124.25166 | 41366 ft | 524 kts | 138° |
| 2026-05-07 22:32 | -25.27575 | 124.31157 | 41367 ft | 523 kts | 138° |
| 2026-05-07 22:32 | -25.32430 | 124.37148 | 41373 ft | 523 kts | 138° |
| 2026-05-07 22:33 | -25.37277 | 124.43136 | 41373 ft | 522 kts | 138° |
| 2026-05-07 22:33 | -25.42095 | 124.49097 | 41375 ft | 522 kts | 138° |
| 2026-05-07 22:34 | -25.46934 | 124.55091 | 41380 ft | 522 kts | 138° |
| 2026-05-07 22:34 | -25.51773 | 124.61093 | 41389 ft | 522 kts | 138° |
| 2026-05-07 22:35 | -25.56604 | 124.67094 | 41393 ft | 522 kts | 137° |
| 2026-05-07 22:35 | -25.61442 | 124.73110 | 41392 ft | 522 kts | 137° |
| 2026-05-07 22:36 | -25.66270 | 124.79122 | 41395 ft | 522 kts | 137° |
| 2026-05-07 22:36 | -25.71098 | 124.85142 | 41393 ft | 522 kts | 137° |
| 2026-05-07 22:37 | -25.75894 | 124.91130 | 41394 ft | 522 kts | 137° |
| 2026-05-07 22:37 | -25.80722 | 124.97168 | 41405 ft | 522 kts | 137° |
| 2026-05-07 22:38 | -25.85544 | 125.03205 | 41404 ft | 522 kts | 137° |
| 2026-05-07 22:38 | -25.90357 | 125.09238 | 41404 ft | 522 kts | 137° |
| 2026-05-07 22:39 | -25.95172 | 125.15281 | 41409 ft | 523 kts | 137° |
| 2026-05-07 22:39 | -25.99959 | 125.21298 | 41418 ft | 522 kts | 137° |
| 2026-05-07 22:40 | -26.04794 | 125.27384 | 41421 ft | 520 kts | 136° |
| 2026-05-07 22:40 | -26.09568 | 125.33404 | 41431 ft | 518 kts | 136° |
| 2026-05-07 22:41 | -26.14300 | 125.39375 | 41432 ft | 518 kts | 136° |
| 2026-05-07 22:41 | -26.19071 | 125.45401 | 41432 ft | 518 kts | 136° |
| 2026-05-07 22:42 | -26.23837 | 125.51432 | 41433 ft | 518 kts | 136° |
| 2026-05-07 22:42 | -26.28600 | 125.57467 | 41441 ft | 519 kts | 136° |
| 2026-05-07 22:43 | -26.33363 | 125.63511 | 41441 ft | 519 kts | 136° |
| 2026-05-07 22:43 | -26.38128 | 125.69565 | 41438 ft | 519 kts | 136° |
| 2026-05-07 22:44 | -26.42886 | 125.75619 | 41448 ft | 519 kts | 136° |
| 2026-05-07 22:44 | -26.47641 | 125.81677 | 41449 ft | 519 kts | 136° |
| 2026-05-07 22:45 | -26.52403 | 125.87752 | 41449 ft | 519 kts | 136° |
| 2026-05-07 22:45 | -26.57121 | 125.93780 | 41449 ft | 518 kts | 136° |
| 2026-05-07 22:46 | -26.61866 | 125.99849 | 41456 ft | 518 kts | 136° |
| 2026-05-07 22:46 | -26.66606 | 126.05922 | 41459 ft | 518 kts | 136° |
| 2026-05-07 22:47 | -26.71340 | 126.11995 | 41458 ft | 518 kts | 136° |
| 2026-05-07 22:47 | -26.76068 | 126.18068 | 41458 ft | 517 kts | 136° |
| 2026-05-07 22:48 | -26.80790 | 126.24142 | 41466 ft | 517 kts | 135° |
| 2026-05-07 22:48 | -26.85473 | 126.30174 | 41468 ft | 516 kts | 135° |
| 2026-05-07 22:49 | -26.90186 | 126.36252 | 41468 ft | 516 kts | 135° |
| 2026-05-07 22:49 | -26.94884 | 126.42320 | 41467 ft | 515 kts | 135° |
| 2026-05-07 22:50 | -26.99573 | 126.48385 | 41468 ft | 514 kts | 135° |
| 2026-05-07 22:50 | -27.04247 | 126.54440 | 41477 ft | 513 kts | 135° |
| 2026-05-07 22:51 | -27.08917 | 126.60497 | 41476 ft | 513 kts | 135° |
| 2026-05-07 22:51 | -27.13584 | 126.66558 | 41477 ft | 512 kts | 135° |
| 2026-05-07 22:52 | -27.18217 | 126.72584 | 41476 ft | 512 kts | 135° |
| 2026-05-07 22:52 | -27.22869 | 126.78643 | 41482 ft | 512 kts | 134° |
| 2026-05-07 22:53 | -27.27522 | 126.84711 | 41487 ft | 511 kts | 134° |
| 2026-05-07 22:53 | -27.32160 | 126.90769 | 41486 ft | 511 kts | 134° |
| 2026-05-07 22:54 | -27.36791 | 126.96833 | 41485 ft | 511 kts | 134° |
| 2026-05-07 22:54 | -27.41425 | 127.02911 | 41485 ft | 511 kts | 134° |
| 2026-05-07 22:55 | -27.46032 | 127.08962 | 41491 ft | 511 kts | 134° |
| 2026-05-07 22:55 | -27.50650 | 127.15036 | 41491 ft | 510 kts | 134° |
| 2026-05-07 22:56 | -27.54522 | 127.20134 | 41495 ft | 510 kts | 134° |
| 2026-05-07 22:56 | -27.59101 | 127.26172 | 41494 ft | 510 kts | 134° |
| 2026-05-07 22:57 | -27.63708 | 127.32255 | 41495 ft | 509 kts | 134° |
| 2026-05-07 22:57 | -27.68307 | 127.38336 | 41497 ft | 509 kts | 134° |
| 2026-05-07 22:58 | -27.72903 | 127.44423 | 41504 ft | 508 kts | 133° |
| 2026-05-07 22:58 | -27.77489 | 127.50504 | 41503 ft | 508 kts | 133° |
| 2026-05-07 22:59 | -27.82040 | 127.56547 | 41504 ft | 508 kts | 133° |
| 2026-05-07 22:59 | -27.86617 | 127.62633 | 41503 ft | 508 kts | 133° |
| 2026-05-07 23:00 | -27.91185 | 127.68717 | 41504 ft | 507 kts | 133° |
| 2026-05-07 23:00 | -27.95755 | 127.74811 | 41504 ft | 506 kts | 133° |
| 2026-05-07 23:01 | -28.00306 | 127.80890 | 41513 ft | 506 kts | 133° |
| 2026-05-07 23:01 | -28.04826 | 127.86935 | 41513 ft | 506 kts | 133° |
| 2026-05-07 23:02 | -28.09367 | 127.93017 | 41513 ft | 506 kts | 133° |
| 2026-05-07 23:02 | -28.13917 | 127.99119 | 41513 ft | 506 kts | 133° |
| 2026-05-07 23:03 | -28.18456 | 128.05216 | 41513 ft | 506 kts | 133° |
| 2026-05-07 23:03 | -28.22993 | 128.11318 | 41513 ft | 506 kts | 133° |
| 2026-05-07 23:04 | -28.27496 | 128.17385 | 41514 ft | 506 kts | 133° |
| 2026-05-07 23:04 | -28.32029 | 128.23501 | 41513 ft | 506 kts | 133° |
| 2026-05-07 23:05 | -28.36560 | 128.29621 | 41522 ft | 506 kts | 133° |
| 2026-05-07 23:05 | -28.41086 | 128.35745 | 41522 ft | 506 kts | 133° |
| 2026-05-07 23:06 | -28.45616 | 128.41883 | 41522 ft | 506 kts | 133° |
| 2026-05-07 23:06 | -28.50140 | 128.48022 | 41522 ft | 506 kts | 133° |
| 2026-05-07 23:07 | -28.54632 | 128.54126 | 41522 ft | 506 kts | 132° |
| 2026-05-07 23:07 | -28.59151 | 128.60277 | 41522 ft | 506 kts | 132° |
| 2026-05-07 23:08 | -28.63665 | 128.66428 | 41523 ft | 506 kts | 132° |
| 2026-05-07 23:08 | -28.68171 | 128.72579 | 41524 ft | 506 kts | 132° |
| 2026-05-07 23:09 | -28.72676 | 128.78737 | 41533 ft | 506 kts | 132° |
| 2026-05-07 23:09 | -28.77177 | 128.84899 | 41530 ft | 506 kts | 132° |
| 2026-05-07 23:10 | -28.81682 | 128.91076 | 41532 ft | 506 kts | 132° |
| 2026-05-07 23:10 | -28.86160 | 128.97225 | 41533 ft | 506 kts | 132° |
| 2026-05-07 23:11 | -28.90653 | 129.03403 | 41531 ft | 506 kts | 132° |
| 2026-05-07 23:11 | -28.95153 | 129.09589 | 41530 ft | 506 kts | 132° |
| 2026-05-07 23:12 | -28.99644 | 129.15770 | 41532 ft | 506 kts | 132° |
| 2026-05-07 23:12 | -29.04142 | 129.21971 | 41531 ft | 506 kts | 132° |
| 2026-05-07 23:13 | -29.08599 | 129.28127 | 41531 ft | 505 kts | 132° |
| 2026-05-07 23:13 | -29.13085 | 129.34332 | 41533 ft | 505 kts | 132° |
| 2026-05-07 23:14 | -29.17562 | 129.40535 | 41532 ft | 505 kts | 132° |
| 2026-05-07 23:14 | -29.22036 | 129.46741 | 41531 ft | 505 kts | 131° |
| 2026-05-07 23:15 | -29.26502 | 129.52947 | 41530 ft | 504 kts | 131° |
| 2026-05-07 23:15 | -29.30963 | 129.59154 | 41530 ft | 504 kts | 131° |
| 2026-05-07 23:16 | -29.35398 | 129.65336 | 41531 ft | 504 kts | 131° |
| 2026-05-07 23:16 | -29.39847 | 129.71545 | 41531 ft | 504 kts | 131° |
| 2026-05-07 23:17 | -29.44293 | 129.77761 | 41531 ft | 503 kts | 131° |
| 2026-05-07 23:17 | -29.48734 | 129.83979 | 41531 ft | 503 kts | 131° |
| 2026-05-07 23:18 | -29.53168 | 129.90196 | 41530 ft | 503 kts | 131° |
| 2026-05-07 23:18 | -29.57569 | 129.96377 | 41532 ft | 503 kts | 131° |
| 2026-05-07 23:19 | -29.61992 | 130.02597 | 41530 ft | 502 kts | 131° |
| 2026-05-07 23:19 | -29.66415 | 130.08828 | 41531 ft | 503 kts | 131° |
| 2026-05-07 23:20 | -29.70834 | 130.15062 | 41531 ft | 502 kts | 131° |
| 2026-05-07 23:20 | -29.75244 | 130.21294 | 41531 ft | 502 kts | 131° |
| 2026-05-07 23:21 | -29.79657 | 130.27539 | 41532 ft | 502 kts | 131° |
| 2026-05-07 23:21 | -29.84069 | 130.33793 | 41533 ft | 502 kts | 131° |
| 2026-05-07 23:22 | -29.88475 | 130.40047 | 41531 ft | 503 kts | 131° |
| 2026-05-07 23:22 | -29.92880 | 130.46310 | 41530 ft | 503 kts | 131° |
| 2026-05-07 23:23 | -29.97258 | 130.52545 | 41533 ft | 503 kts | 131° |
| 2026-05-07 23:23 | -30.01664 | 130.58829 | 41533 ft | 503 kts | 130° |
| 2026-05-07 23:24 | -30.06055 | 130.65101 | 41531 ft | 501 kts | 130° |
| 2026-05-07 23:24 | -30.10435 | 130.71367 | 41531 ft | 501 kts | 130° |
| 2026-05-07 23:25 | -30.14808 | 130.77634 | 41530 ft | 501 kts | 130° |
| 2026-05-07 23:25 | -30.19174 | 130.83900 | 41532 ft | 500 kts | 130° |
| 2026-05-07 23:26 | -30.23543 | 130.90179 | 41522 ft | 500 kts | 130° |
| 2026-05-07 23:26 | -30.27876 | 130.96418 | 41522 ft | 500 kts | 130° |
| 2026-05-07 23:27 | -30.34426 | 131.05866 | 41522 ft | 500 kts | 130° |
| 2026-05-07 23:27 | -30.38786 | 131.12168 | 41522 ft | 501 kts | 130° |
| 2026-05-07 23:28 | -30.43139 | 131.18470 | 41522 ft | 501 kts | 130° |
| 2026-05-07 23:28 | -30.47467 | 131.24746 | 41522 ft | 501 kts | 130° |
| 2026-05-07 23:29 | -30.51818 | 131.31065 | 41522 ft | 501 kts | 130° |
| 2026-05-07 23:29 | -30.56164 | 131.37386 | 41522 ft | 501 kts | 130° |
| 2026-05-07 23:30 | -30.60505 | 131.43710 | 41522 ft | 501 kts | 130° |
| 2026-05-07 23:30 | -30.64842 | 131.50040 | 41522 ft | 501 kts | 130° |
| 2026-05-07 23:31 | -30.69161 | 131.56352 | 41522 ft | 501 kts | 130° |
| 2026-05-07 23:31 | -30.73491 | 131.62690 | 41513 ft | 501 kts | 130° |
| 2026-05-07 23:32 | -30.77819 | 131.69037 | 41513 ft | 501 kts | 129° |
| 2026-05-07 23:32 | -30.82145 | 131.75391 | 41513 ft | 500 kts | 129° |
| 2026-05-07 23:33 | -30.86466 | 131.81748 | 41513 ft | 500 kts | 129° |
| 2026-05-07 23:33 | -30.90776 | 131.88115 | 41513 ft | 500 kts | 129° |
| 2026-05-07 23:34 | -30.95076 | 131.94481 | 41522 ft | 500 kts | 129° |
| 2026-05-07 23:34 | -30.99370 | 132.00848 | 41522 ft | 499 kts | 129° |
| 2026-05-07 23:35 | -31.03663 | 132.07222 | 41522 ft | 500 kts | 129° |
| 2026-05-07 23:35 | -31.07930 | 132.13568 | 41522 ft | 500 kts | 129° |
| 2026-05-07 23:36 | -31.12219 | 132.19959 | 41522 ft | 500 kts | 129° |
| 2026-05-07 23:36 | -31.16505 | 132.26353 | 41522 ft | 500 kts | 129° |
| 2026-05-07 23:37 | -31.20780 | 132.32742 | 41522 ft | 499 kts | 129° |
| 2026-05-07 23:37 | -31.25049 | 132.39134 | 41531 ft | 499 kts | 129° |
| 2026-05-07 23:38 | -31.29314 | 132.45530 | 41522 ft | 499 kts | 129° |
| 2026-05-07 23:38 | -31.33575 | 132.51929 | 41522 ft | 498 kts | 129° |
| 2026-05-07 23:39 | -31.37839 | 132.58345 | 41522 ft | 498 kts | 129° |
| 2026-05-07 23:39 | -31.42064 | 132.64711 | 41522 ft | 498 kts | 129° |
| 2026-05-07 23:40 | -31.46315 | 132.71128 | 41522 ft | 498 kts | 129° |
| 2026-05-07 23:40 | -31.50563 | 132.77550 | 41522 ft | 498 kts | 129° |
| 2026-05-07 23:41 | -31.54808 | 132.83980 | 41522 ft | 498 kts | 129° |
| 2026-05-07 23:41 | -31.59050 | 132.90415 | 41522 ft | 498 kts | 129° |
| 2026-05-07 23:42 | -31.63293 | 132.96861 | 41522 ft | 499 kts | 129° |
| 2026-05-07 23:42 | -31.67499 | 133.03264 | 41522 ft | 499 kts | 128° |
| 2026-05-07 23:43 | -31.71734 | 133.09720 | 41522 ft | 499 kts | 128° |
| 2026-05-07 23:43 | -31.75959 | 133.16173 | 41522 ft | 499 kts | 128° |
| 2026-05-07 23:44 | -31.79474 | 133.21549 | 41522 ft | 498 kts | 128° |
| 2026-05-07 23:44 | -31.83697 | 133.28019 | 41522 ft | 498 kts | 128° |
| 2026-05-07 23:45 | -31.87917 | 133.34494 | 41522 ft | 498 kts | 128° |
| 2026-05-07 23:45 | -31.92130 | 133.40971 | 41520 ft | 498 kts | 128° |
| 2026-05-07 23:46 | -31.96341 | 133.47454 | 41513 ft | 498 kts | 128° |
| 2026-05-07 23:46 | -32.00550 | 133.53947 | 41513 ft | 498 kts | 128° |
| 2026-05-07 23:47 | -32.04754 | 133.60441 | 41512 ft | 497 kts | 128° |
| 2026-05-07 23:47 | -32.08912 | 133.66877 | 41513 ft | 496 kts | 128° |
| 2026-05-07 23:48 | -32.13094 | 133.73360 | 41513 ft | 497 kts | 128° |
| 2026-05-07 23:48 | -32.17237 | 133.79895 | 41513 ft | 497 kts | 127° |
| 2026-05-07 23:49 | -32.21340 | 133.86476 | 41513 ft | 497 kts | 127° |
| 2026-05-07 23:49 | -32.25445 | 133.93059 | 41513 ft | 497 kts | 127° |
| 2026-05-07 23:50 | -32.29551 | 133.99634 | 41513 ft | 497 kts | 127° |
| 2026-05-07 23:50 | -32.33660 | 134.06217 | 41513 ft | 497 kts | 127° |
| 2026-05-07 23:51 | -32.37739 | 134.12763 | 41513 ft | 497 kts | 127° |
| 2026-05-07 23:51 | -32.41835 | 134.19348 | 41513 ft | 497 kts | 127° |
| 2026-05-07 23:52 | -32.45932 | 134.25946 | 41513 ft | 497 kts | 127° |
| 2026-05-07 23:52 | -32.50019 | 134.32541 | 41513 ft | 497 kts | 127° |
| 2026-05-07 23:53 | -32.54106 | 134.39147 | 41513 ft | 497 kts | 127° |
| 2026-05-07 23:53 | -32.58193 | 134.45766 | 41513 ft | 497 kts | 127° |
| 2026-05-07 23:54 | -32.62268 | 134.52375 | 41513 ft | 496 kts | 127° |
| 2026-05-07 23:54 | -32.66341 | 134.58993 | 41513 ft | 496 kts | 127° |
| 2026-05-07 23:55 | -32.70375 | 134.65559 | 41513 ft | 495 kts | 127° |
| 2026-05-07 23:55 | -32.74433 | 134.72177 | 41513 ft | 495 kts | 127° |
| 2026-05-07 23:56 | -32.78486 | 134.78798 | 41513 ft | 495 kts | 127° |
| 2026-05-07 23:56 | -32.82539 | 134.85430 | 41513 ft | 495 kts | 127° |
| 2026-05-07 23:57 | -32.86588 | 134.92067 | 41513 ft | 495 kts | 127° |
| 2026-05-07 23:57 | -32.90628 | 134.98702 | 41513 ft | 495 kts | 127° |
| 2026-05-07 23:58 | -32.94669 | 135.05350 | 41513 ft | 495 kts | 127° |
| 2026-05-07 23:58 | -32.98698 | 135.11992 | 41513 ft | 495 kts | 127° |
| 2026-05-07 23:59 | -33.02684 | 135.18606 | 41513 ft | 495 kts | 126° |
| 2026-05-07 23:59 | -33.06678 | 135.25292 | 41513 ft | 495 kts | 126° |
| 2026-05-08 00:00 | -33.10668 | 135.31987 | 41509 ft | 494 kts | 126° |
| 2026-05-08 00:00 | -33.14660 | 135.38688 | 41504 ft | 494 kts | 126° |
| 2026-05-08 00:01 | -33.18616 | 135.45338 | 41504 ft | 494 kts | 126° |
| 2026-05-08 00:01 | -33.22592 | 135.52034 | 41503 ft | 494 kts | 126° |
| 2026-05-08 00:02 | -33.26559 | 135.58726 | 41504 ft | 493 kts | 126° |
| 2026-05-08 00:02 | -33.30518 | 135.65418 | 41504 ft | 493 kts | 126° |
| 2026-05-08 00:03 | -33.34471 | 135.72111 | 41504 ft | 492 kts | 126° |
| 2026-05-08 00:03 | -33.38422 | 135.78813 | 41504 ft | 492 kts | 126° |
| 2026-05-08 00:04 | -33.42364 | 135.85513 | 41504 ft | 491 kts | 126° |
| 2026-05-08 00:04 | -33.46279 | 135.92166 | 41504 ft | 491 kts | 126° |
| 2026-05-08 00:05 | -33.50234 | 135.98857 | 41504 ft | 491 kts | 126° |
| 2026-05-08 00:05 | -33.54184 | 136.05549 | 41504 ft | 492 kts | 126° |
| 2026-05-08 00:06 | -33.58132 | 136.12256 | 41503 ft | 492 kts | 126° |
| 2026-05-08 00:06 | -33.62066 | 136.18955 | 41504 ft | 491 kts | 126° |
| 2026-05-08 00:07 | -33.65997 | 136.25663 | 41504 ft | 491 kts | 126° |
| 2026-05-08 00:07 | -33.69923 | 136.32373 | 41504 ft | 491 kts | 126° |
| 2026-05-08 00:08 | -33.73827 | 136.39059 | 41504 ft | 491 kts | 126° |
| 2026-05-08 00:08 | -33.77754 | 136.45796 | 41504 ft | 492 kts | 126° |
| 2026-05-08 00:09 | -33.81681 | 136.52545 | 41504 ft | 492 kts | 126° |
| 2026-05-08 00:09 | -33.85584 | 136.59266 | 41504 ft | 492 kts | 126° |
| 2026-05-08 00:10 | -33.89486 | 136.65999 | 41504 ft | 490 kts | 126° |
| 2026-05-08 00:10 | -33.93379 | 136.72726 | 41504 ft | 489 kts | 126° |
| 2026-05-08 00:11 | -33.97271 | 136.79465 | 41504 ft | 490 kts | 126° |
| 2026-05-08 00:11 | -34.01163 | 136.86217 | 41504 ft | 490 kts | 126° |
| 2026-05-08 00:12 | -34.05046 | 136.92966 | 41503 ft | 488 kts | 126° |
| 2026-05-08 00:12 | -34.08905 | 136.99687 | 41504 ft | 486 kts | 126° |
| 2026-05-08 00:13 | -34.12751 | 137.06405 | 41499 ft | 487 kts | 126° |
| 2026-05-08 00:13 | -34.16604 | 137.13137 | 41496 ft | 487 kts | 126° |
| 2026-05-08 00:14 | -34.20427 | 137.19826 | 41491 ft | 487 kts | 126° |
| 2026-05-08 00:14 | -34.24279 | 137.26581 | 41495 ft | 488 kts | 126° |
| 2026-05-08 00:15 | -34.28130 | 137.33351 | 41495 ft | 488 kts | 126° |
| 2026-05-08 00:15 | -34.31975 | 137.40122 | 41495 ft | 488 kts | 126° |
| 2026-05-08 00:16 | -34.35800 | 137.46871 | 41494 ft | 489 kts | 126° |
| 2026-05-08 00:16 | -34.39643 | 137.53664 | 41491 ft | 489 kts | 126° |
| 2026-05-08 00:17 | -34.43485 | 137.60468 | 41484 ft | 489 kts | 126° |
| 2026-05-08 00:17 | -34.47321 | 137.67275 | 41486 ft | 489 kts | 126° |
| 2026-05-08 00:18 | -34.51159 | 137.74097 | 41485 ft | 489 kts | 126° |
| 2026-05-08 00:18 | -34.54989 | 137.80919 | 41485 ft | 489 kts | 126° |
| 2026-05-08 00:19 | -34.58812 | 137.87749 | 41484 ft | 489 kts | 126° |
| 2026-05-08 00:19 | -34.62642 | 137.94599 | 41486 ft | 489 kts | 126° |
| 2026-05-08 00:20 | -34.66460 | 138.01434 | 41485 ft | 489 kts | 126° |
| 2026-05-08 00:20 | -34.70271 | 138.08271 | 41486 ft | 489 kts | 126° |
| 2026-05-08 00:21 | -34.74081 | 138.15124 | 41485 ft | 489 kts | 126° |
| 2026-05-08 00:21 | -34.77863 | 138.21938 | 41486 ft | 489 kts | 126° |
| 2026-05-08 00:22 | -34.81662 | 138.28797 | 41485 ft | 488 kts | 126° |
| 2026-05-08 00:22 | -34.85455 | 138.35659 | 41485 ft | 488 kts | 126° |
| 2026-05-08 00:23 | -34.89242 | 138.42522 | 41486 ft | 487 kts | 126° |
| 2026-05-08 00:23 | -34.93013 | 138.49384 | 41484 ft | 487 kts | 125° |
| 2026-05-08 00:24 | -34.95997 | 138.56756 | 41486 ft | 489 kts | 114° |
| 2026-05-08 00:24 | -34.98446 | 138.64512 | 41486 ft | 490 kts | 112° |
| 2026-05-08 00:25 | -35.00793 | 138.72314 | 41486 ft | 490 kts | 112° |
| 2026-05-08 00:25 | -35.03135 | 138.80118 | 41477 ft | 490 kts | 112° |
| 2026-05-08 00:26 | -35.05492 | 138.87935 | 41476 ft | 490 kts | 112° |
| 2026-05-08 00:26 | -35.07846 | 138.95735 | 41475 ft | 490 kts | 112° |
| 2026-05-08 00:27 | -35.10196 | 139.03539 | 41477 ft | 490 kts | 112° |
| 2026-05-08 00:27 | -35.12542 | 139.11353 | 41476 ft | 490 kts | 112° |
| 2026-05-08 00:28 | -35.14882 | 139.19170 | 41476 ft | 490 kts | 112° |
| 2026-05-08 00:28 | -35.17199 | 139.26932 | 41477 ft | 490 kts | 112° |
| 2026-05-08 00:29 | -35.19531 | 139.34766 | 41477 ft | 490 kts | 112° |
| 2026-05-08 00:29 | -35.21858 | 139.42604 | 41476 ft | 490 kts | 112° |
| 2026-05-08 00:30 | -35.24176 | 139.50433 | 41477 ft | 489 kts | 112° |
| 2026-05-08 00:30 | -35.26744 | 139.58123 | 41476 ft | 487 kts | 117° |
| 2026-05-08 00:31 | -35.29161 | 139.64353 | 41468 ft | 487 kts | 118° |
| 2026-05-08 00:31 | -35.32067 | 139.71847 | 41467 ft | 487 kts | 117° |
| 2026-05-08 00:32 | -35.34902 | 139.79379 | 41467 ft | 486 kts | 116° |
| 2026-05-08 00:32 | -35.37692 | 139.86922 | 41467 ft | 486 kts | 116° |
| 2026-05-08 00:33 | -35.40471 | 139.94470 | 41466 ft | 485 kts | 116° |
| 2026-05-08 00:33 | -35.43243 | 140.02013 | 41458 ft | 485 kts | 116° |
| 2026-05-08 00:34 | -35.46014 | 140.09562 | 41458 ft | 486 kts | 116° |
| 2026-05-08 00:34 | -35.48783 | 140.17121 | 41458 ft | 486 kts | 116° |
| 2026-05-08 00:35 | -35.51545 | 140.24682 | 41452 ft | 486 kts | 116° |
| 2026-05-08 00:35 | -35.54306 | 140.32258 | 41449 ft | 485 kts | 116° |
| 2026-05-08 00:36 | -35.57041 | 140.39781 | 41449 ft | 486 kts | 116° |
| 2026-05-08 00:36 | -35.59793 | 140.47368 | 41444 ft | 486 kts | 116° |
| 2026-05-08 00:37 | -35.62544 | 140.54970 | 41431 ft | 486 kts | 116° |
| 2026-05-08 00:38 | -35.66658 | 140.66374 | 41422 ft | 487 kts | 116° |
| 2026-05-08 00:38 | -35.69403 | 140.74008 | 41421 ft | 487 kts | 116° |
| 2026-05-08 00:39 | -35.72125 | 140.81595 | 41417 ft | 488 kts | 116° |
| 2026-05-08 00:39 | -35.74860 | 140.89238 | 41410 ft | 488 kts | 116° |
| 2026-05-08 00:40 | -35.77596 | 140.96901 | 41409 ft | 489 kts | 116° |
| 2026-05-08 00:40 | -35.80327 | 141.04569 | 41404 ft | 489 kts | 116° |
| 2026-05-08 00:41 | -35.83055 | 141.12247 | 41395 ft | 489 kts | 116° |
| 2026-05-08 00:41 | -35.85781 | 141.19941 | 41394 ft | 490 kts | 116° |
| 2026-05-08 00:42 | -35.88503 | 141.27642 | 41381 ft | 490 kts | 116° |
| 2026-05-08 00:42 | -35.91224 | 141.35358 | 41387 ft | 490 kts | 116° |
| 2026-05-08 00:43 | -35.93937 | 141.43071 | 41375 ft | 490 kts | 116° |
| 2026-05-08 00:43 | -35.96645 | 141.50790 | 41372 ft | 490 kts | 116° |
| 2026-05-08 00:44 | -35.99332 | 141.58467 | 41370 ft | 490 kts | 116° |
| 2026-05-08 00:44 | -36.02031 | 141.66200 | 41366 ft | 489 kts | 116° |
| 2026-05-08 00:45 | -36.04716 | 141.73910 | 41356 ft | 488 kts | 116° |
| 2026-05-08 00:45 | -36.07393 | 141.81619 | 41358 ft | 489 kts | 116° |
| 2026-05-08 00:46 | -36.10054 | 141.89298 | 41352 ft | 489 kts | 116° |
| 2026-05-08 00:46 | -36.12725 | 141.97027 | 41345 ft | 489 kts | 116° |
| 2026-05-08 00:47 | -36.15392 | 142.04764 | 41339 ft | 489 kts | 116° |
| 2026-05-08 00:47 | -36.18050 | 142.12504 | 41339 ft | 489 kts | 116° |
| 2026-05-08 00:48 | -36.20709 | 142.20258 | 41330 ft | 489 kts | 116° |
| 2026-05-08 00:48 | -36.23361 | 142.28007 | 41330 ft | 488 kts | 116° |
| 2026-05-08 00:49 | -36.26007 | 142.35756 | 41320 ft | 488 kts | 116° |
| 2026-05-08 00:49 | -36.28648 | 142.43518 | 41320 ft | 488 kts | 116° |
| 2026-05-08 00:50 | -36.31264 | 142.51225 | 41314 ft | 488 kts | 116° |
| 2026-05-08 00:50 | -36.33891 | 142.58984 | 41314 ft | 488 kts | 116° |
| 2026-05-08 00:51 | -36.36516 | 142.66759 | 41308 ft | 488 kts | 116° |
| 2026-05-08 00:51 | -36.39128 | 142.74514 | 41299 ft | 488 kts | 116° |
| 2026-05-08 00:52 | -36.41739 | 142.82285 | 41303 ft | 488 kts | 116° |
| 2026-05-08 00:52 | -36.44342 | 142.90061 | 41299 ft | 488 kts | 116° |
| 2026-05-08 00:53 | -36.46940 | 142.97848 | 41160 ft | 488 kts | 116° |
| 2026-05-08 00:53 | -36.48237 | 143.01741 | 40918 ft | 487 kts | 116° |
| 2026-05-08 00:53 | -36.49529 | 143.05624 | 40392 ft | 485 kts | 116° |
| 2026-05-08 00:53 | -36.50812 | 143.09488 | 39793 ft | 483 kts | 116° |
| 2026-05-08 00:54 | -36.52075 | 143.13292 | 39213 ft | 480 kts | 116° |
| 2026-05-08 00:54 | -36.53361 | 143.17166 | 38597 ft | 478 kts | 116° |
| 2026-05-08 00:54 | -36.54608 | 143.20934 | 38003 ft | 475 kts | 116° |
| 2026-05-08 00:54 | -36.55859 | 143.24728 | 37407 ft | 473 kts | 116° |
| 2026-05-08 00:55 | -36.57103 | 143.28512 | 36801 ft | 472 kts | 116° |
| 2026-05-08 00:55 | -36.58349 | 143.32294 | 36205 ft | 473 kts | 117° |
| 2026-05-08 00:55 | -36.59600 | 143.36087 | 35603 ft | 474 kts | 117° |
| 2026-05-08 00:55 | -36.60861 | 143.39891 | 34995 ft | 478 kts | 117° |
| 2026-05-08 00:56 | -36.62130 | 143.43735 | 34387 ft | 483 kts | 117° |
| 2026-05-08 00:56 | -36.63405 | 143.47619 | 33770 ft | 486 kts | 117° |
| 2026-05-08 00:56 | -36.64685 | 143.51532 | 33185 ft | 488 kts | 117° |
| 2026-05-08 00:56 | -36.65965 | 143.55453 | 32574 ft | 490 kts | 117° |
| 2026-05-08 00:57 | -36.67248 | 143.59387 | 31965 ft | 491 kts | 117° |
| 2026-05-08 00:57 | -36.68540 | 143.63336 | 31359 ft | 494 kts | 117° |
| 2026-05-08 00:57 | -36.69839 | 143.67309 | 30755 ft | 495 kts | 117° |
| 2026-05-08 00:57 | -36.71135 | 143.71292 | 30148 ft | 497 kts | 117° |
| 2026-05-08 00:58 | -36.72430 | 143.75288 | 29534 ft | 497 kts | 116° |
| 2026-05-08 00:58 | -36.73720 | 143.79276 | 28940 ft | 495 kts | 116° |
| 2026-05-08 00:58 | -36.75002 | 143.83241 | 28240 ft | 491 kts | 117° |
| 2026-05-08 00:58 | -36.76276 | 143.87181 | 27516 ft | 487 kts | 116° |
| 2026-05-08 00:59 | -36.77529 | 143.91076 | 26798 ft | 482 kts | 116° |
| 2026-05-08 00:59 | -36.78772 | 143.94944 | 26069 ft | 478 kts | 116° |
| 2026-05-08 00:59 | -36.80005 | 143.98779 | 25337 ft | 473 kts | 117° |
| 2026-05-08 00:59 | -36.81213 | 144.02527 | 24625 ft | 469 kts | 116° |
| 2026-05-08 01:00 | -36.82420 | 144.06289 | 23904 ft | 465 kts | 117° |
| 2026-05-08 01:00 | -36.83616 | 144.10019 | 23186 ft | 461 kts | 117° |
| 2026-05-08 01:00 | -36.84802 | 144.13717 | 22453 ft | 457 kts | 117° |
| 2026-05-08 01:00 | -36.85978 | 144.17387 | 21731 ft | 453 kts | 116° |
| 2026-05-08 01:01 | -36.87140 | 144.21025 | 21009 ft | 449 kts | 117° |
| 2026-05-08 01:01 | -36.88296 | 144.24625 | 20283 ft | 445 kts | 117° |
| 2026-05-08 01:01 | -36.89439 | 144.28201 | 19559 ft | 440 kts | 117° |
| 2026-05-08 01:01 | -36.90564 | 144.31734 | 18841 ft | 435 kts | 117° |
| 2026-05-08 01:02 | -36.91678 | 144.35235 | 18110 ft | 430 kts | 117° |
| 2026-05-08 01:02 | -36.93030 | 144.38498 | 17384 ft | 417 kts | 129° |
| 2026-05-08 01:02 | -36.94766 | 144.41342 | 16663 ft | 407 kts | 134° |
| 2026-05-08 01:02 | -36.96571 | 144.44025 | 15937 ft | 400 kts | 136° |
| 2026-05-08 01:03 | -36.98337 | 144.46589 | 15220 ft | 376 kts | 136° |
| 2026-05-08 01:03 | -36.99977 | 144.48959 | 14700 ft | 352 kts | 137° |
| 2026-05-08 01:03 | -37.01521 | 144.51190 | 14322 ft | 326 kts | 137° |
| 2026-05-08 01:03 | -37.02957 | 144.53269 | 13870 ft | 305 kts | 138° |
| 2026-05-08 01:04 | -37.04320 | 144.55222 | 13413 ft | 290 kts | 139° |
| 2026-05-08 01:04 | -37.05635 | 144.57106 | 12961 ft | 287 kts | 139° |
| 2026-05-08 01:04 | -37.06947 | 144.58982 | 12480 ft | 286 kts | 139° |
| 2026-05-08 01:04 | -37.08260 | 144.60849 | 12004 ft | 285 kts | 139° |
| 2026-05-08 01:05 | -37.09583 | 144.62720 | 11522 ft | 287 kts | 139° |
| 2026-05-08 01:05 | -37.10881 | 144.64577 | 11057 ft | 287 kts | 139° |
| 2026-05-08 01:05 | -37.12190 | 144.66471 | 10585 ft | 289 kts | 138° |
| 2026-05-08 01:05 | -37.13483 | 144.68352 | 10104 ft | 280 kts | 138° |
| 2026-05-08 01:06 | -37.14746 | 144.70150 | 9612 ft | 268 kts | 140° |
| 2026-05-08 01:06 | -37.16069 | 144.71708 | 9166 ft | 254 kts | 149° |
| 2026-05-08 01:06 | -37.17499 | 144.72878 | 8700 ft | 240 kts | 159° |
| 2026-05-08 01:06 | -37.18994 | 144.73668 | 8244 ft | 226 kts | 168° |
| 2026-05-08 01:07 | -37.20464 | 144.74154 | 8029 ft | 209 kts | 173° |
| 2026-05-08 01:07 | -37.21814 | 144.74522 | 7998 ft | 188 kts | 174° |
| 2026-05-08 01:07 | -37.23059 | 144.74847 | 8003 ft | 181 kts | 175° |
| 2026-05-08 01:07 | -37.24289 | 144.75160 | 7994 ft | 180 kts | 175° |
| 2026-05-08 01:08 | -37.25517 | 144.75473 | 8003 ft | 183 kts | 174° |
| 2026-05-08 01:08 | -37.26872 | 144.75820 | 7995 ft | 216 kts | 174° |
| 2026-05-08 01:08 | -37.28405 | 144.76220 | 7986 ft | 231 kts | 173° |
| 2026-05-08 01:08 | -37.29995 | 144.76652 | 7992 ft | 235 kts | 173° |
| 2026-05-08 01:09 | -37.31596 | 144.77081 | 7991 ft | 235 kts | 173° |
| 2026-05-08 01:09 | -37.33177 | 144.77506 | 7994 ft | 235 kts | 173° |
| 2026-05-08 01:09 | -37.34776 | 144.77884 | 7996 ft | 234 kts | 176° |
| 2026-05-08 01:09 | -37.36385 | 144.78150 | 7993 ft | 233 kts | 178° |
| 2026-05-08 01:10 | -37.37996 | 144.78407 | 7998 ft | 232 kts | 177° |
| 2026-05-08 01:10 | -37.39604 | 144.78669 | 7994 ft | 234 kts | 178° |
| 2026-05-08 01:10 | -37.41214 | 144.78941 | 7998 ft | 234 kts | 178° |
| 2026-05-08 01:10 | -37.42820 | 144.79225 | 7983 ft | 233 kts | 177° |
| 2026-05-08 01:11 | -37.44431 | 144.79514 | 7830 ft | 235 kts | 176° |
| 2026-05-08 01:11 | -37.46036 | 144.79806 | 7663 ft | 232 kts | 177° |
| 2026-05-08 01:11 | -37.47628 | 144.80102 | 7480 ft | 231 kts | 176° |
| 2026-05-08 01:11 | -37.49222 | 144.80438 | 7309 ft | 232 kts | 176° |
| 2026-05-08 01:12 | -37.50804 | 144.80773 | 7124 ft | 231 kts | 175° |
| 2026-05-08 01:12 | -37.52382 | 144.81118 | 6957 ft | 230 kts | 176° |
| 2026-05-08 01:12 | -37.53961 | 144.81504 | 6769 ft | 233 kts | 171° |
| 2026-05-08 01:12 | -37.55401 | 144.82479 | 6606 ft | 243 kts | 146° |
| 2026-05-08 01:13 | -37.56344 | 144.84297 | 6428 ft | 260 kts | 119° |
| 2026-05-08 01:13 | -37.56818 | 144.86532 | 6269 ft | 266 kts | 107° |
| 2026-05-08 01:13 | -37.57005 | 144.88874 | 6086 ft | 271 kts | 99° |
| 2026-05-08 01:13 | -37.57036 | 144.91250 | 5996 ft | 271 kts | 95° |
| 2026-05-08 01:14 | -37.57027 | 144.93623 | 5993 ft | 272 kts | 95° |
| 2026-05-08 01:14 | -37.57046 | 144.96007 | 5988 ft | 271 kts | 97° |
| 2026-05-08 01:14 | -37.57115 | 144.98380 | 5984 ft | 270 kts | 99° |
| 2026-05-08 01:14 | -37.57543 | 145.00603 | 5790 ft | 252 kts | 122° |
| 2026-05-08 01:15 | -37.58549 | 145.02263 | 5573 ft | 228 kts | 149° |
| 2026-05-08 01:15 | -37.59895 | 145.03104 | 5350 ft | 207 kts | 174° |
| 2026-05-08 01:15 | -37.61308 | 145.03311 | 4994 ft | 205 kts | 184° |
| 2026-05-08 01:15 | -37.62739 | 145.03282 | 4592 ft | 207 kts | 189° |
| 2026-05-08 01:16 | -37.64185 | 145.03141 | 4192 ft | 210 kts | 191° |
| 2026-05-08 01:16 | -37.65642 | 145.02969 | 3789 ft | 211 kts | 191° |
| 2026-05-08 01:16 | -37.67092 | 145.02796 | 3392 ft | 212 kts | 191° |
| 2026-05-08 01:16 | -37.68383 | 145.02198 | 3091 ft | 185 kts | 226° |
| 2026-05-08 01:17 | -37.68805 | 145.00830 | 3037 ft | 170 kts | 272° |
| 2026-05-08 01:17 | -37.68340 | 144.99454 | 2828 ft | 174 kts | 291° |
| 2026-05-08 01:17 | -37.67799 | 144.98097 | 2562 ft | 173 kts | 289° |
| 2026-05-08 01:17 | -37.67272 | 144.96755 | 2312 ft | 164 kts | 288° |
| 2026-05-08 01:18 | -37.66919 | 144.95477 | 2095 ft | 144 kts | 275° |
| 2026-05-08 01:18 | -37.66815 | 144.94273 | 1902 ft | 131 kts | 267° |
| 2026-05-08 01:18 | -37.66743 | 144.93159 | 1736 ft | 123 kts | 270° |
| 2026-05-08 01:18 | -37.66690 | 144.92455 | 1635 ft | 121 kts | 270° |
| 2026-05-08 01:19 | -37.66612 | 144.91389 | 1460 ft | 122 kts | 271° |
| 2026-05-08 01:19 | -37.66546 | 144.90325 | 1297 ft | 121 kts | 269° |
| 2026-05-08 01:19 | -37.66465 | 144.88920 | 1088 ft | 122 kts | 271° |
| 2026-05-08 01:19 | -37.66425 | 144.88196 | 980 ft | 122 kts | 266° |
| 2026-05-08 01:20 | -37.66376 | 144.87138 | 815 ft | 123 kts | 269° |
| 2026-05-08 01:20 | -37.66306 | 144.86067 | 641 ft | 121 kts | 271° |
| 2026-05-08 01:20 | -37.66240 | 144.84998 | 487 ft | 121 kts | 271° |
| 2026-05-08 01:20 | -37.66171 | 144.83935 | 410 ft | 119 kts | 272° |
| 2026-05-08 01:21 | -37.66132 | 144.83158 | 417 ft | 48 kts | 274° |
| 2026-05-08 01:21 | -37.66145 | 144.82977 | 414 ft | 15 kts | 245° |
| 2026-05-08 01:21 | -37.66201 | 144.82841 | 401 ft | 20 kts | 242° |
| 2026-05-08 01:21 | -37.66297 | 144.82695 | 401 ft | 23 kts | 201° |
| 2026-05-08 01:22 | -37.66435 | 144.82768 | 392 ft | 23 kts | 111° |
| 2026-05-08 01:22 | -37.66457 | 144.82974 | 393 ft | 24 kts | 94° |
| 2026-05-08 01:22 | -37.66469 | 144.83158 | 403 ft | 21 kts | 95° |
| 2026-05-08 01:22 | -37.66479 | 144.83339 | 408 ft | 21 kts | 93° |
| 2026-05-08 01:23 | -37.66489 | 144.83524 | 403 ft | 21 kts | 95° |
| 2026-05-08 01:23 | -37.66501 | 144.83722 | 408 ft | 24 kts | 94° |
| 2026-05-08 01:23 | -37.66514 | 144.83911 | 407 ft | 22 kts | 95° |
| 2026-05-08 01:23 | -37.66529 | 144.84082 | 410 ft | 12 kts | 97° |
| 2026-05-08 01:24 | -37.66549 | 144.84123 | 406 ft | 1 kts | 131° |
| 2026-05-08 01:24 | -37.66582 | 144.84154 | 407 ft | 13 kts | 150° |
| 2026-05-08 01:24 | -37.66689 | 144.84193 | 403 ft | 15 kts | 136° |
| 2026-05-08 01:24 | -37.66693 | 144.84290 | 403 ft | 13 kts | 72° |
| 2026-05-08 01:25 | -37.66669 | 144.84452 | 404 ft | 24 kts | 82° |
| 2026-05-08 01:25 | -37.66647 | 144.84640 | 407 ft | 24 kts | 81° |
| 2026-05-08 01:25 | -37.66641 | 144.84690 | 408 ft | 0 kts | 81° |
| 2026-05-08 01:25 | -37.66640 | 144.84693 | 408 ft | 3 kts | 81° |
| 2026-05-08 01:26 | -37.66611 | 144.84762 | 409 ft | 14 kts | 45° |
| 2026-05-08 01:26 | -37.66550 | 144.84869 | 406 ft | 15 kts | 68° |
| 2026-05-08 01:26 | -37.66534 | 144.84967 | 412 ft | 5 kts | 95° |
| 2026-05-08 01:26 | -37.66543 | 144.84998 | 412 ft | 1 kts | 122° |
| 2026-05-08 01:27 | -37.66546 | 144.85003 | 405 ft | 2 kts | 129° |
| 2026-05-08 01:27 | -37.66571 | 144.85015 | 411 ft | 5 kts | 178° |
| 2026-05-08 01:27 | -37.66576 | 144.85012 | 411 ft | 0 kts | 201° |
| 2026-05-08 01:27 | -37.66580 | 144.85007 | 406 ft | 2 kts | 217° |
| 2026-05-08 01:28 | -37.66602 | 144.84983 | 403 ft | 3 kts | 222° |
| 2026-05-08 01:28 | -37.66611 | 144.84974 | 410 ft | 2 kts | 221° |
| 2026-05-08 01:29 | -37.66613 | 144.84970 | 410 ft | 1 kts | 222° |
| 2026-05-08 01:29 | -37.66619 | 144.84965 | 408 ft | 1 kts | 222° |
| 2026-05-08 01:29 | -37.66621 | 144.84961 | 409 ft | 1 kts | 222° |
| 2026-05-08 01:29 | -37.66622 | 144.84961 | 409 ft | 0 kts | 222° |